<?xml version="1.0" encoding="UTF-8" standalone="no" ?>
<gpx xmlns="http://www.topografix.com/GPX/1/1" xmlns:xsi="http://www.w3.org/2001/XMLSchema-instance" xsi:schemaLocation="http://www.topografix.com/GPX/1/1 http://www.topografix.com/GPX/1/1/gpx.xsd" version="1.1" creator="VisuGPX - https://www.visugpx.com">
  <metadata>
    <name>Orchamps La Barre par le Bois des Pestiférés</name>
    <desc><![CDATA[Randonnée pédestre effectuée le 15 avril 2019]]></desc>
  </metadata>
  <trk>
    <name><![CDATA[20190415211838-6DMPF]]></name>
    <trkseg>
      <trkpt lat="47.14646" lon="5.65652">
        <ele>216</ele>
        <time>2019-04-15T07:06:29Z</time>
      </trkpt>
      <trkpt lat="47.14646" lon="5.65652">
        <ele>216</ele>
        <time>2019-04-15T07:06:30Z</time>
      </trkpt>
      <trkpt lat="47.14641" lon="5.65654">
        <ele>215</ele>
        <time>2019-04-15T07:06:43Z</time>
      </trkpt>
      <trkpt lat="47.14633" lon="5.65662">
        <ele>215</ele>
        <time>2019-04-15T07:06:59Z</time>
      </trkpt>
      <trkpt lat="47.14632" lon="5.6567">
        <ele>214</ele>
        <time>2019-04-15T07:07:05Z</time>
      </trkpt>
      <trkpt lat="47.14635" lon="5.65676">
        <ele>214</ele>
        <time>2019-04-15T07:07:09Z</time>
      </trkpt>
      <trkpt lat="47.14637" lon="5.65683">
        <ele>213</ele>
        <time>2019-04-15T07:07:14Z</time>
      </trkpt>
      <trkpt lat="47.14638" lon="5.65691">
        <ele>214</ele>
        <time>2019-04-15T07:07:19Z</time>
      </trkpt>
      <trkpt lat="47.1465" lon="5.65708">
        <ele>215</ele>
        <time>2019-04-15T07:07:34Z</time>
      </trkpt>
      <trkpt lat="47.14659" lon="5.65714">
        <ele>215</ele>
        <time>2019-04-15T07:07:43Z</time>
      </trkpt>
      <trkpt lat="47.14689" lon="5.65712">
        <ele>218</ele>
        <time>2019-04-15T07:08:10Z</time>
      </trkpt>
      <trkpt lat="47.14698" lon="5.65718">
        <ele>218</ele>
        <time>2019-04-15T07:08:19Z</time>
      </trkpt>
      <trkpt lat="47.14708" lon="5.65721">
        <ele>219</ele>
        <time>2019-04-15T07:08:26Z</time>
      </trkpt>
      <trkpt lat="47.14737" lon="5.65724">
        <ele>220</ele>
        <time>2019-04-15T07:08:48Z</time>
      </trkpt>
      <trkpt lat="47.14747" lon="5.65725">
        <ele>222</ele>
        <time>2019-04-15T07:08:56Z</time>
      </trkpt>
      <trkpt lat="47.1476" lon="5.65726">
        <ele>221</ele>
        <time>2019-04-15T07:09:08Z</time>
      </trkpt>
      <trkpt lat="47.14765" lon="5.65726">
        <ele>223</ele>
        <time>2019-04-15T07:09:12Z</time>
      </trkpt>
      <trkpt lat="47.1477" lon="5.65724">
        <ele>223</ele>
        <time>2019-04-15T07:09:16Z</time>
      </trkpt>
      <trkpt lat="47.14775" lon="5.65723">
        <ele>222</ele>
        <time>2019-04-15T07:09:20Z</time>
      </trkpt>
      <trkpt lat="47.14781" lon="5.65723">
        <ele>222</ele>
        <time>2019-04-15T07:09:25Z</time>
      </trkpt>
      <trkpt lat="47.14784" lon="5.65713">
        <ele>223</ele>
        <time>2019-04-15T07:09:35Z</time>
      </trkpt>
      <trkpt lat="47.14787" lon="5.657">
        <ele>224</ele>
        <time>2019-04-15T07:09:44Z</time>
      </trkpt>
      <trkpt lat="47.14788" lon="5.65686">
        <ele>225</ele>
        <time>2019-04-15T07:09:53Z</time>
      </trkpt>
      <trkpt lat="47.14794" lon="5.65685">
        <ele>225</ele>
        <time>2019-04-15T07:09:58Z</time>
      </trkpt>
      <trkpt lat="47.14799" lon="5.65688">
        <ele>224</ele>
        <time>2019-04-15T07:10:03Z</time>
      </trkpt>
      <trkpt lat="47.14809" lon="5.65681">
        <ele>225</ele>
        <time>2019-04-15T07:10:12Z</time>
      </trkpt>
      <trkpt lat="47.14818" lon="5.65684">
        <ele>225</ele>
        <time>2019-04-15T07:10:21Z</time>
      </trkpt>
      <trkpt lat="47.14827" lon="5.65688">
        <ele>225</ele>
        <time>2019-04-15T07:10:28Z</time>
      </trkpt>
      <trkpt lat="47.14841" lon="5.65685">
        <ele>225</ele>
        <time>2019-04-15T07:10:43Z</time>
      </trkpt>
      <trkpt lat="47.14851" lon="5.65683">
        <ele>226</ele>
        <time>2019-04-15T07:10:51Z</time>
      </trkpt>
      <trkpt lat="47.1487" lon="5.65683">
        <ele>228</ele>
        <time>2019-04-15T07:11:08Z</time>
      </trkpt>
      <trkpt lat="47.14878" lon="5.65686">
        <ele>228</ele>
        <time>2019-04-15T07:11:16Z</time>
      </trkpt>
      <trkpt lat="47.14887" lon="5.65693">
        <ele>228</ele>
        <time>2019-04-15T07:11:23Z</time>
      </trkpt>
      <trkpt lat="47.14894" lon="5.65703">
        <ele>228</ele>
        <time>2019-04-15T07:11:31Z</time>
      </trkpt>
      <trkpt lat="47.14897" lon="5.6572">
        <ele>229</ele>
        <time>2019-04-15T07:11:43Z</time>
      </trkpt>
      <trkpt lat="47.14893" lon="5.65747">
        <ele>229</ele>
        <time>2019-04-15T07:11:55Z</time>
      </trkpt>
      <trkpt lat="47.14896" lon="5.6576">
        <ele>229</ele>
        <time>2019-04-15T07:12:02Z</time>
      </trkpt>
      <trkpt lat="47.14923" lon="5.65774">
        <ele>232</ele>
        <time>2019-04-15T07:12:27Z</time>
      </trkpt>
      <trkpt lat="47.14932" lon="5.65779">
        <ele>232</ele>
        <time>2019-04-15T07:12:36Z</time>
      </trkpt>
      <trkpt lat="47.14939" lon="5.65788">
        <ele>232</ele>
        <time>2019-04-15T07:12:43Z</time>
      </trkpt>
      <trkpt lat="47.1495" lon="5.65811">
        <ele>235</ele>
        <time>2019-04-15T07:12:59Z</time>
      </trkpt>
      <trkpt lat="47.14953" lon="5.65828">
        <ele>234</ele>
        <time>2019-04-15T07:13:08Z</time>
      </trkpt>
      <trkpt lat="47.14955" lon="5.65842">
        <ele>235</ele>
        <time>2019-04-15T07:13:16Z</time>
      </trkpt>
      <trkpt lat="47.14959" lon="5.6586">
        <ele>234</ele>
        <time>2019-04-15T07:13:28Z</time>
      </trkpt>
      <trkpt lat="47.14959" lon="5.65868">
        <ele>234</ele>
        <time>2019-04-15T07:13:32Z</time>
      </trkpt>
      <trkpt lat="47.1496" lon="5.65876">
        <ele>234</ele>
        <time>2019-04-15T07:13:36Z</time>
      </trkpt>
      <trkpt lat="47.14961" lon="5.65882">
        <ele>234</ele>
        <time>2019-04-15T07:13:40Z</time>
      </trkpt>
      <trkpt lat="47.14961" lon="5.65889">
        <ele>235</ele>
        <time>2019-04-15T07:13:45Z</time>
      </trkpt>
      <trkpt lat="47.14964" lon="5.65895">
        <ele>234</ele>
        <time>2019-04-15T07:13:50Z</time>
      </trkpt>
      <trkpt lat="47.14974" lon="5.65912">
        <ele>235</ele>
        <time>2019-04-15T07:14:02Z</time>
      </trkpt>
      <trkpt lat="47.14976" lon="5.6592">
        <ele>235</ele>
        <time>2019-04-15T07:14:06Z</time>
      </trkpt>
      <trkpt lat="47.14978" lon="5.65926">
        <ele>236</ele>
        <time>2019-04-15T07:14:09Z</time>
      </trkpt>
      <trkpt lat="47.14981" lon="5.65932">
        <ele>237</ele>
        <time>2019-04-15T07:14:13Z</time>
      </trkpt>
      <trkpt lat="47.14984" lon="5.65936">
        <ele>237</ele>
        <time>2019-04-15T07:14:17Z</time>
      </trkpt>
      <trkpt lat="47.14986" lon="5.65942">
        <ele>237</ele>
        <time>2019-04-15T07:14:21Z</time>
      </trkpt>
      <trkpt lat="47.14991" lon="5.65955">
        <ele>236</ele>
        <time>2019-04-15T07:14:28Z</time>
      </trkpt>
      <trkpt lat="47.14994" lon="5.65967">
        <ele>236</ele>
        <time>2019-04-15T07:14:35Z</time>
      </trkpt>
      <trkpt lat="47.14999" lon="5.65979">
        <ele>236</ele>
        <time>2019-04-15T07:14:43Z</time>
      </trkpt>
      <trkpt lat="47.15016" lon="5.66035">
        <ele>241</ele>
        <time>2019-04-15T07:15:19Z</time>
      </trkpt>
      <trkpt lat="47.15016" lon="5.66042">
        <ele>241</ele>
        <time>2019-04-15T07:15:22Z</time>
      </trkpt>
      <trkpt lat="47.15019" lon="5.66048">
        <ele>241</ele>
        <time>2019-04-15T07:15:26Z</time>
      </trkpt>
      <trkpt lat="47.15021" lon="5.66054">
        <ele>241</ele>
        <time>2019-04-15T07:15:30Z</time>
      </trkpt>
      <trkpt lat="47.15035" lon="5.66075">
        <ele>243</ele>
        <time>2019-04-15T07:15:45Z</time>
      </trkpt>
      <trkpt lat="47.15038" lon="5.66081">
        <ele>242</ele>
        <time>2019-04-15T07:15:49Z</time>
      </trkpt>
      <trkpt lat="47.15038" lon="5.66089">
        <ele>243</ele>
        <time>2019-04-15T07:15:53Z</time>
      </trkpt>
      <trkpt lat="47.15043" lon="5.66104">
        <ele>245</ele>
        <time>2019-04-15T07:16:00Z</time>
      </trkpt>
      <trkpt lat="47.15047" lon="5.66109">
        <ele>244</ele>
        <time>2019-04-15T07:16:04Z</time>
      </trkpt>
      <trkpt lat="47.1505" lon="5.66115">
        <ele>245</ele>
        <time>2019-04-15T07:16:08Z</time>
      </trkpt>
      <trkpt lat="47.15061" lon="5.66131">
        <ele>245</ele>
        <time>2019-04-15T07:16:20Z</time>
      </trkpt>
      <trkpt lat="47.15065" lon="5.66136">
        <ele>244</ele>
        <time>2019-04-15T07:16:24Z</time>
      </trkpt>
      <trkpt lat="47.1507" lon="5.66139">
        <ele>244</ele>
        <time>2019-04-15T07:16:28Z</time>
      </trkpt>
      <trkpt lat="47.15073" lon="5.66144">
        <ele>244</ele>
        <time>2019-04-15T07:16:32Z</time>
      </trkpt>
      <trkpt lat="47.15078" lon="5.66172">
        <ele>245</ele>
        <time>2019-04-15T07:16:49Z</time>
      </trkpt>
      <trkpt lat="47.1508" lon="5.66187">
        <ele>245</ele>
        <time>2019-04-15T07:16:57Z</time>
      </trkpt>
      <trkpt lat="47.15081" lon="5.662">
        <ele>245</ele>
        <time>2019-04-15T07:17:04Z</time>
      </trkpt>
      <trkpt lat="47.1508" lon="5.66214">
        <ele>245</ele>
        <time>2019-04-15T07:17:11Z</time>
      </trkpt>
      <trkpt lat="47.15085" lon="5.66227">
        <ele>244</ele>
        <time>2019-04-15T07:17:19Z</time>
      </trkpt>
      <trkpt lat="47.15088" lon="5.66267">
        <ele>244</ele>
        <time>2019-04-15T07:17:40Z</time>
      </trkpt>
      <trkpt lat="47.15088" lon="5.66289">
        <ele>245</ele>
        <time>2019-04-15T07:17:51Z</time>
      </trkpt>
      <trkpt lat="47.15091" lon="5.6631">
        <ele>246</ele>
        <time>2019-04-15T07:18:01Z</time>
      </trkpt>
      <trkpt lat="47.15092" lon="5.66318">
        <ele>246</ele>
        <time>2019-04-15T07:18:05Z</time>
      </trkpt>
      <trkpt lat="47.15093" lon="5.66325">
        <ele>246</ele>
        <time>2019-04-15T07:18:09Z</time>
      </trkpt>
      <trkpt lat="47.15093" lon="5.66332">
        <ele>246</ele>
        <time>2019-04-15T07:18:12Z</time>
      </trkpt>
      <trkpt lat="47.15095" lon="5.66338">
        <ele>245</ele>
        <time>2019-04-15T07:18:16Z</time>
      </trkpt>
      <trkpt lat="47.15104" lon="5.66358">
        <ele>246</ele>
        <time>2019-04-15T07:18:29Z</time>
      </trkpt>
      <trkpt lat="47.15108" lon="5.66362">
        <ele>247</ele>
        <time>2019-04-15T07:18:33Z</time>
      </trkpt>
      <trkpt lat="47.15114" lon="5.66364">
        <ele>247</ele>
        <time>2019-04-15T07:18:37Z</time>
      </trkpt>
      <trkpt lat="47.15118" lon="5.66368">
        <ele>248</ele>
        <time>2019-04-15T07:18:41Z</time>
      </trkpt>
      <trkpt lat="47.15122" lon="5.66373">
        <ele>247</ele>
        <time>2019-04-15T07:18:45Z</time>
      </trkpt>
      <trkpt lat="47.15126" lon="5.66377">
        <ele>247</ele>
        <time>2019-04-15T07:18:49Z</time>
      </trkpt>
      <trkpt lat="47.15131" lon="5.66381">
        <ele>247</ele>
        <time>2019-04-15T07:18:53Z</time>
      </trkpt>
      <trkpt lat="47.15136" lon="5.66384">
        <ele>247</ele>
        <time>2019-04-15T07:18:57Z</time>
      </trkpt>
      <trkpt lat="47.15142" lon="5.66386">
        <ele>248</ele>
        <time>2019-04-15T07:19:01Z</time>
      </trkpt>
      <trkpt lat="47.15145" lon="5.6639">
        <ele>247</ele>
        <time>2019-04-15T07:19:05Z</time>
      </trkpt>
      <trkpt lat="47.15155" lon="5.66394">
        <ele>247</ele>
        <time>2019-04-15T07:19:13Z</time>
      </trkpt>
      <trkpt lat="47.15163" lon="5.66403">
        <ele>248</ele>
        <time>2019-04-15T07:19:21Z</time>
      </trkpt>
      <trkpt lat="47.15166" lon="5.66409">
        <ele>248</ele>
        <time>2019-04-15T07:19:25Z</time>
      </trkpt>
      <trkpt lat="47.1517" lon="5.66413">
        <ele>249</ele>
        <time>2019-04-15T07:19:29Z</time>
      </trkpt>
      <trkpt lat="47.15174" lon="5.66417">
        <ele>249</ele>
        <time>2019-04-15T07:19:33Z</time>
      </trkpt>
      <trkpt lat="47.15182" lon="5.66425">
        <ele>248</ele>
        <time>2019-04-15T07:19:41Z</time>
      </trkpt>
      <trkpt lat="47.1519" lon="5.66443">
        <ele>249</ele>
        <time>2019-04-15T07:19:52Z</time>
      </trkpt>
      <trkpt lat="47.15193" lon="5.66449">
        <ele>251</ele>
        <time>2019-04-15T07:19:56Z</time>
      </trkpt>
      <trkpt lat="47.15196" lon="5.66455">
        <ele>251</ele>
        <time>2019-04-15T07:20:00Z</time>
      </trkpt>
      <trkpt lat="47.15208" lon="5.66479">
        <ele>251</ele>
        <time>2019-04-15T07:20:16Z</time>
      </trkpt>
      <trkpt lat="47.1521" lon="5.66485">
        <ele>251</ele>
        <time>2019-04-15T07:20:19Z</time>
      </trkpt>
      <trkpt lat="47.15213" lon="5.6649">
        <ele>251</ele>
        <time>2019-04-15T07:20:23Z</time>
      </trkpt>
      <trkpt lat="47.15217" lon="5.66495">
        <ele>251</ele>
        <time>2019-04-15T07:20:27Z</time>
      </trkpt>
      <trkpt lat="47.1522" lon="5.66502">
        <ele>250</ele>
        <time>2019-04-15T07:20:32Z</time>
      </trkpt>
      <trkpt lat="47.15223" lon="5.66509">
        <ele>251</ele>
        <time>2019-04-15T07:20:36Z</time>
      </trkpt>
      <trkpt lat="47.15226" lon="5.66514">
        <ele>251</ele>
        <time>2019-04-15T07:20:40Z</time>
      </trkpt>
      <trkpt lat="47.15231" lon="5.66519">
        <ele>250</ele>
        <time>2019-04-15T07:20:44Z</time>
      </trkpt>
      <trkpt lat="47.15237" lon="5.66531">
        <ele>252</ele>
        <time>2019-04-15T07:20:52Z</time>
      </trkpt>
      <trkpt lat="47.1524" lon="5.66537">
        <ele>251</ele>
        <time>2019-04-15T07:20:56Z</time>
      </trkpt>
      <trkpt lat="47.15245" lon="5.66549">
        <ele>252</ele>
        <time>2019-04-15T07:21:04Z</time>
      </trkpt>
      <trkpt lat="47.15259" lon="5.66582">
        <ele>252</ele>
        <time>2019-04-15T07:21:24Z</time>
      </trkpt>
      <trkpt lat="47.15263" lon="5.66587">
        <ele>252</ele>
        <time>2019-04-15T07:21:28Z</time>
      </trkpt>
      <trkpt lat="47.15273" lon="5.66603">
        <ele>251</ele>
        <time>2019-04-15T07:21:40Z</time>
      </trkpt>
      <trkpt lat="47.15276" lon="5.66608">
        <ele>252</ele>
        <time>2019-04-15T07:21:44Z</time>
      </trkpt>
      <trkpt lat="47.1528" lon="5.66613">
        <ele>252</ele>
        <time>2019-04-15T07:21:48Z</time>
      </trkpt>
      <trkpt lat="47.15282" lon="5.66619">
        <ele>252</ele>
        <time>2019-04-15T07:21:52Z</time>
      </trkpt>
      <trkpt lat="47.15285" lon="5.66624">
        <ele>252</ele>
        <time>2019-04-15T07:21:56Z</time>
      </trkpt>
      <trkpt lat="47.15288" lon="5.6663">
        <ele>252</ele>
        <time>2019-04-15T07:22:00Z</time>
      </trkpt>
      <trkpt lat="47.15297" lon="5.66656">
        <ele>252</ele>
        <time>2019-04-15T07:22:15Z</time>
      </trkpt>
      <trkpt lat="47.15301" lon="5.6666">
        <ele>252</ele>
        <time>2019-04-15T07:22:19Z</time>
      </trkpt>
      <trkpt lat="47.15303" lon="5.66667">
        <ele>252</ele>
        <time>2019-04-15T07:22:23Z</time>
      </trkpt>
      <trkpt lat="47.15311" lon="5.66687">
        <ele>252</ele>
        <time>2019-04-15T07:22:36Z</time>
      </trkpt>
      <trkpt lat="47.15316" lon="5.667">
        <ele>252</ele>
        <time>2019-04-15T07:22:43Z</time>
      </trkpt>
      <trkpt lat="47.15323" lon="5.66709">
        <ele>253</ele>
        <time>2019-04-15T07:22:52Z</time>
      </trkpt>
      <trkpt lat="47.15326" lon="5.66715">
        <ele>253</ele>
        <time>2019-04-15T07:22:56Z</time>
      </trkpt>
      <trkpt lat="47.15327" lon="5.66722">
        <ele>253</ele>
        <time>2019-04-15T07:23:00Z</time>
      </trkpt>
      <trkpt lat="47.1533" lon="5.66727">
        <ele>253</ele>
        <time>2019-04-15T07:23:04Z</time>
      </trkpt>
      <trkpt lat="47.15334" lon="5.66733">
        <ele>253</ele>
        <time>2019-04-15T07:23:08Z</time>
      </trkpt>
      <trkpt lat="47.15337" lon="5.66739">
        <ele>253</ele>
        <time>2019-04-15T07:23:12Z</time>
      </trkpt>
      <trkpt lat="47.15344" lon="5.6675">
        <ele>253</ele>
        <time>2019-04-15T07:23:20Z</time>
      </trkpt>
      <trkpt lat="47.15347" lon="5.66756">
        <ele>252</ele>
        <time>2019-04-15T07:23:24Z</time>
      </trkpt>
      <trkpt lat="47.1535" lon="5.66763">
        <ele>254</ele>
        <time>2019-04-15T07:23:47Z</time>
      </trkpt>
      <trkpt lat="47.15357" lon="5.66773">
        <ele>250</ele>
        <time>2019-04-15T07:23:54Z</time>
      </trkpt>
      <trkpt lat="47.1536" lon="5.66779">
        <ele>251</ele>
        <time>2019-04-15T07:23:58Z</time>
      </trkpt>
      <trkpt lat="47.15365" lon="5.66784">
        <ele>250</ele>
        <time>2019-04-15T07:24:02Z</time>
      </trkpt>
      <trkpt lat="47.15369" lon="5.66787">
        <ele>250</ele>
        <time>2019-04-15T07:24:05Z</time>
      </trkpt>
      <trkpt lat="47.15372" lon="5.66792">
        <ele>250</ele>
        <time>2019-04-15T07:24:08Z</time>
      </trkpt>
      <trkpt lat="47.15376" lon="5.66799">
        <ele>248</ele>
        <time>2019-04-15T07:24:11Z</time>
      </trkpt>
      <trkpt lat="47.15379" lon="5.66807">
        <ele>248</ele>
        <time>2019-04-15T07:24:15Z</time>
      </trkpt>
      <trkpt lat="47.15382" lon="5.66811">
        <ele>248</ele>
        <time>2019-04-15T07:24:18Z</time>
      </trkpt>
      <trkpt lat="47.15387" lon="5.66813">
        <ele>248</ele>
        <time>2019-04-15T07:24:21Z</time>
      </trkpt>
      <trkpt lat="47.15391" lon="5.66816">
        <ele>248</ele>
        <time>2019-04-15T07:24:24Z</time>
      </trkpt>
      <trkpt lat="47.15395" lon="5.66823">
        <ele>248</ele>
        <time>2019-04-15T07:24:28Z</time>
      </trkpt>
      <trkpt lat="47.15398" lon="5.66828">
        <ele>249</ele>
        <time>2019-04-15T07:24:31Z</time>
      </trkpt>
      <trkpt lat="47.15404" lon="5.66848">
        <ele>250</ele>
        <time>2019-04-15T07:24:41Z</time>
      </trkpt>
      <trkpt lat="47.15409" lon="5.66853">
        <ele>250</ele>
        <time>2019-04-15T07:24:45Z</time>
      </trkpt>
      <trkpt lat="47.15412" lon="5.6686">
        <ele>250</ele>
        <time>2019-04-15T07:24:49Z</time>
      </trkpt>
      <trkpt lat="47.15414" lon="5.66874">
        <ele>250</ele>
        <time>2019-04-15T07:24:57Z</time>
      </trkpt>
      <trkpt lat="47.15417" lon="5.66879">
        <ele>251</ele>
        <time>2019-04-15T07:25:01Z</time>
      </trkpt>
      <trkpt lat="47.15419" lon="5.66885">
        <ele>251</ele>
        <time>2019-04-15T07:25:05Z</time>
      </trkpt>
      <trkpt lat="47.15422" lon="5.66891">
        <ele>251</ele>
        <time>2019-04-15T07:25:09Z</time>
      </trkpt>
      <trkpt lat="47.15424" lon="5.66897">
        <ele>251</ele>
        <time>2019-04-15T07:25:13Z</time>
      </trkpt>
      <trkpt lat="47.15427" lon="5.66905">
        <ele>251</ele>
        <time>2019-04-15T07:25:17Z</time>
      </trkpt>
      <trkpt lat="47.15429" lon="5.66925">
        <ele>250</ele>
        <time>2019-04-15T07:25:26Z</time>
      </trkpt>
      <trkpt lat="47.1543" lon="5.66939">
        <ele>250</ele>
        <time>2019-04-15T07:25:33Z</time>
      </trkpt>
      <trkpt lat="47.15432" lon="5.66946">
        <ele>250</ele>
        <time>2019-04-15T07:25:37Z</time>
      </trkpt>
      <trkpt lat="47.15432" lon="5.66952">
        <ele>251</ele>
        <time>2019-04-15T07:25:42Z</time>
      </trkpt>
      <trkpt lat="47.15433" lon="5.6696">
        <ele>251</ele>
        <time>2019-04-15T07:25:46Z</time>
      </trkpt>
      <trkpt lat="47.15435" lon="5.66967">
        <ele>251</ele>
        <time>2019-04-15T07:25:49Z</time>
      </trkpt>
      <trkpt lat="47.15438" lon="5.66974">
        <ele>251</ele>
        <time>2019-04-15T07:25:53Z</time>
      </trkpt>
      <trkpt lat="47.15439" lon="5.66982">
        <ele>250</ele>
        <time>2019-04-15T07:25:57Z</time>
      </trkpt>
      <trkpt lat="47.1544" lon="5.66989">
        <ele>251</ele>
        <time>2019-04-15T07:26:00Z</time>
      </trkpt>
      <trkpt lat="47.15442" lon="5.66996">
        <ele>251</ele>
        <time>2019-04-15T07:26:04Z</time>
      </trkpt>
      <trkpt lat="47.15447" lon="5.67011">
        <ele>252</ele>
        <time>2019-04-15T07:26:12Z</time>
      </trkpt>
      <trkpt lat="47.15449" lon="5.67017">
        <ele>252</ele>
        <time>2019-04-15T07:26:16Z</time>
      </trkpt>
      <trkpt lat="47.15451" lon="5.67025">
        <ele>252</ele>
        <time>2019-04-15T07:26:20Z</time>
      </trkpt>
      <trkpt lat="47.15452" lon="5.67047">
        <ele>252</ele>
        <time>2019-04-15T07:26:29Z</time>
      </trkpt>
      <trkpt lat="47.15454" lon="5.67056">
        <ele>251</ele>
        <time>2019-04-15T07:26:33Z</time>
      </trkpt>
      <trkpt lat="47.15458" lon="5.67078">
        <ele>252</ele>
        <time>2019-04-15T07:26:44Z</time>
      </trkpt>
      <trkpt lat="47.15461" lon="5.67083">
        <ele>252</ele>
        <time>2019-04-15T07:26:48Z</time>
      </trkpt>
      <trkpt lat="47.15462" lon="5.6709">
        <ele>250</ele>
        <time>2019-04-15T07:26:52Z</time>
      </trkpt>
      <trkpt lat="47.15465" lon="5.67096">
        <ele>250</ele>
        <time>2019-04-15T07:26:55Z</time>
      </trkpt>
      <trkpt lat="47.15469" lon="5.67101">
        <ele>251</ele>
        <time>2019-04-15T07:27:00Z</time>
      </trkpt>
      <trkpt lat="47.15473" lon="5.67107">
        <ele>250</ele>
        <time>2019-04-15T07:27:05Z</time>
      </trkpt>
      <trkpt lat="47.15482" lon="5.67126">
        <ele>250</ele>
        <time>2019-04-15T07:27:18Z</time>
      </trkpt>
      <trkpt lat="47.15487" lon="5.67139">
        <ele>250</ele>
        <time>2019-04-15T07:27:26Z</time>
      </trkpt>
      <trkpt lat="47.1549" lon="5.67146">
        <ele>250</ele>
        <time>2019-04-15T07:27:30Z</time>
      </trkpt>
      <trkpt lat="47.15493" lon="5.67152">
        <ele>251</ele>
        <time>2019-04-15T07:27:34Z</time>
      </trkpt>
      <trkpt lat="47.15498" lon="5.67156">
        <ele>251</ele>
        <time>2019-04-15T07:27:38Z</time>
      </trkpt>
      <trkpt lat="47.15501" lon="5.67163">
        <ele>251</ele>
        <time>2019-04-15T07:27:43Z</time>
      </trkpt>
      <trkpt lat="47.15504" lon="5.67169">
        <ele>252</ele>
        <time>2019-04-15T07:27:47Z</time>
      </trkpt>
      <trkpt lat="47.15511" lon="5.6718">
        <ele>251</ele>
        <time>2019-04-15T07:27:55Z</time>
      </trkpt>
      <trkpt lat="47.15512" lon="5.67186">
        <ele>251</ele>
        <time>2019-04-15T07:27:58Z</time>
      </trkpt>
      <trkpt lat="47.15518" lon="5.67199">
        <ele>251</ele>
        <time>2019-04-15T07:28:06Z</time>
      </trkpt>
      <trkpt lat="47.15522" lon="5.67204">
        <ele>251</ele>
        <time>2019-04-15T07:28:10Z</time>
      </trkpt>
      <trkpt lat="47.15529" lon="5.67216">
        <ele>250</ele>
        <time>2019-04-15T07:28:18Z</time>
      </trkpt>
      <trkpt lat="47.15535" lon="5.67228">
        <ele>251</ele>
        <time>2019-04-15T07:28:26Z</time>
      </trkpt>
      <trkpt lat="47.15539" lon="5.67233">
        <ele>250</ele>
        <time>2019-04-15T07:28:30Z</time>
      </trkpt>
      <trkpt lat="47.15542" lon="5.67239">
        <ele>251</ele>
        <time>2019-04-15T07:28:34Z</time>
      </trkpt>
      <trkpt lat="47.15551" lon="5.67258">
        <ele>250</ele>
        <time>2019-04-15T07:28:46Z</time>
      </trkpt>
      <trkpt lat="47.15554" lon="5.67265">
        <ele>250</ele>
        <time>2019-04-15T07:28:50Z</time>
      </trkpt>
      <trkpt lat="47.15557" lon="5.67273">
        <ele>250</ele>
        <time>2019-04-15T07:28:54Z</time>
      </trkpt>
      <trkpt lat="47.1556" lon="5.67278">
        <ele>250</ele>
        <time>2019-04-15T07:28:58Z</time>
      </trkpt>
      <trkpt lat="47.15563" lon="5.67285">
        <ele>250</ele>
        <time>2019-04-15T07:29:02Z</time>
      </trkpt>
      <trkpt lat="47.15568" lon="5.6729">
        <ele>250</ele>
        <time>2019-04-15T07:29:06Z</time>
      </trkpt>
      <trkpt lat="47.15572" lon="5.67294">
        <ele>249</ele>
        <time>2019-04-15T07:29:10Z</time>
      </trkpt>
      <trkpt lat="47.15577" lon="5.67295">
        <ele>249</ele>
        <time>2019-04-15T07:29:13Z</time>
      </trkpt>
      <trkpt lat="47.15582" lon="5.673">
        <ele>248</ele>
        <time>2019-04-15T07:29:16Z</time>
      </trkpt>
      <trkpt lat="47.15584" lon="5.67307">
        <ele>248</ele>
        <time>2019-04-15T07:29:20Z</time>
      </trkpt>
      <trkpt lat="47.15586" lon="5.67315">
        <ele>247</ele>
        <time>2019-04-15T07:29:24Z</time>
      </trkpt>
      <trkpt lat="47.15594" lon="5.67335">
        <ele>248</ele>
        <time>2019-04-15T07:29:36Z</time>
      </trkpt>
      <trkpt lat="47.15598" lon="5.67341">
        <ele>248</ele>
        <time>2019-04-15T07:29:41Z</time>
      </trkpt>
      <trkpt lat="47.15602" lon="5.67345">
        <ele>248</ele>
        <time>2019-04-15T07:29:45Z</time>
      </trkpt>
      <trkpt lat="47.15605" lon="5.6735">
        <ele>248</ele>
        <time>2019-04-15T07:29:49Z</time>
      </trkpt>
      <trkpt lat="47.15607" lon="5.67357">
        <ele>248</ele>
        <time>2019-04-15T07:29:53Z</time>
      </trkpt>
      <trkpt lat="47.15609" lon="5.67363">
        <ele>248</ele>
        <time>2019-04-15T07:29:56Z</time>
      </trkpt>
      <trkpt lat="47.1562" lon="5.6738">
        <ele>246</ele>
        <time>2019-04-15T07:30:08Z</time>
      </trkpt>
      <trkpt lat="47.15631" lon="5.67395">
        <ele>247</ele>
        <time>2019-04-15T07:30:20Z</time>
      </trkpt>
      <trkpt lat="47.15635" lon="5.674">
        <ele>247</ele>
        <time>2019-04-15T07:30:24Z</time>
      </trkpt>
      <trkpt lat="47.15641" lon="5.67411">
        <ele>247</ele>
        <time>2019-04-15T07:30:32Z</time>
      </trkpt>
      <trkpt lat="47.15643" lon="5.67417">
        <ele>247</ele>
        <time>2019-04-15T07:30:35Z</time>
      </trkpt>
      <trkpt lat="47.15647" lon="5.67422">
        <ele>246</ele>
        <time>2019-04-15T07:30:39Z</time>
      </trkpt>
      <trkpt lat="47.15655" lon="5.67431">
        <ele>246</ele>
        <time>2019-04-15T07:30:47Z</time>
      </trkpt>
      <trkpt lat="47.15658" lon="5.67438">
        <ele>246</ele>
        <time>2019-04-15T07:30:51Z</time>
      </trkpt>
      <trkpt lat="47.15661" lon="5.67442">
        <ele>247</ele>
        <time>2019-04-15T07:30:55Z</time>
      </trkpt>
      <trkpt lat="47.15665" lon="5.67448">
        <ele>247</ele>
        <time>2019-04-15T07:30:59Z</time>
      </trkpt>
      <trkpt lat="47.15668" lon="5.67453">
        <ele>247</ele>
        <time>2019-04-15T07:31:03Z</time>
      </trkpt>
      <trkpt lat="47.15671" lon="5.67457">
        <ele>248</ele>
        <time>2019-04-15T07:31:07Z</time>
      </trkpt>
      <trkpt lat="47.15675" lon="5.67462">
        <ele>247</ele>
        <time>2019-04-15T07:31:11Z</time>
      </trkpt>
      <trkpt lat="47.15688" lon="5.67486">
        <ele>248</ele>
        <time>2019-04-15T07:31:27Z</time>
      </trkpt>
      <trkpt lat="47.15691" lon="5.67492">
        <ele>247</ele>
        <time>2019-04-15T07:31:31Z</time>
      </trkpt>
      <trkpt lat="47.15694" lon="5.67497">
        <ele>247</ele>
        <time>2019-04-15T07:31:35Z</time>
      </trkpt>
      <trkpt lat="47.15696" lon="5.67502">
        <ele>247</ele>
        <time>2019-04-15T07:31:39Z</time>
      </trkpt>
      <trkpt lat="47.157" lon="5.67507">
        <ele>247</ele>
        <time>2019-04-15T07:31:43Z</time>
      </trkpt>
      <trkpt lat="47.15708" lon="5.67517">
        <ele>247</ele>
        <time>2019-04-15T07:31:51Z</time>
      </trkpt>
      <trkpt lat="47.15712" lon="5.67521">
        <ele>247</ele>
        <time>2019-04-15T07:31:55Z</time>
      </trkpt>
      <trkpt lat="47.15715" lon="5.67526">
        <ele>246</ele>
        <time>2019-04-15T07:31:59Z</time>
      </trkpt>
      <trkpt lat="47.15718" lon="5.67532">
        <ele>246</ele>
        <time>2019-04-15T07:32:03Z</time>
      </trkpt>
      <trkpt lat="47.15723" lon="5.67535">
        <ele>245</ele>
        <time>2019-04-15T07:32:07Z</time>
      </trkpt>
      <trkpt lat="47.15732" lon="5.67555">
        <ele>245</ele>
        <time>2019-04-15T07:32:19Z</time>
      </trkpt>
      <trkpt lat="47.15735" lon="5.67561">
        <ele>245</ele>
        <time>2019-04-15T07:32:23Z</time>
      </trkpt>
      <trkpt lat="47.15739" lon="5.67566">
        <ele>245</ele>
        <time>2019-04-15T07:32:27Z</time>
      </trkpt>
      <trkpt lat="47.15743" lon="5.67571">
        <ele>244</ele>
        <time>2019-04-15T07:32:31Z</time>
      </trkpt>
      <trkpt lat="47.15746" lon="5.67577">
        <ele>245</ele>
        <time>2019-04-15T07:32:35Z</time>
      </trkpt>
      <trkpt lat="47.1575" lon="5.67582">
        <ele>245</ele>
        <time>2019-04-15T07:32:39Z</time>
      </trkpt>
      <trkpt lat="47.15756" lon="5.67596">
        <ele>245</ele>
        <time>2019-04-15T07:32:47Z</time>
      </trkpt>
      <trkpt lat="47.15758" lon="5.67602">
        <ele>244</ele>
        <time>2019-04-15T07:32:50Z</time>
      </trkpt>
      <trkpt lat="47.15759" lon="5.67609">
        <ele>245</ele>
        <time>2019-04-15T07:32:54Z</time>
      </trkpt>
      <trkpt lat="47.15758" lon="5.67617">
        <ele>245</ele>
        <time>2019-04-15T07:32:59Z</time>
      </trkpt>
      <trkpt lat="47.15746" lon="5.67633">
        <ele>245</ele>
        <time>2019-04-15T07:33:11Z</time>
      </trkpt>
      <trkpt lat="47.15719" lon="5.67651">
        <ele>249</ele>
        <time>2019-04-15T07:33:36Z</time>
      </trkpt>
      <trkpt lat="47.15724" lon="5.6766">
        <ele>250</ele>
        <time>2019-04-15T07:33:48Z</time>
      </trkpt>
      <trkpt lat="47.15727" lon="5.67675">
        <ele>251</ele>
        <time>2019-04-15T07:33:58Z</time>
      </trkpt>
      <trkpt lat="47.15729" lon="5.67682">
        <ele>251</ele>
        <time>2019-04-15T07:34:03Z</time>
      </trkpt>
      <trkpt lat="47.15742" lon="5.67714">
        <ele>251</ele>
        <time>2019-04-15T07:34:23Z</time>
      </trkpt>
      <trkpt lat="47.15743" lon="5.67724">
        <ele>251</ele>
        <time>2019-04-15T07:34:30Z</time>
      </trkpt>
      <trkpt lat="47.15745" lon="5.67731">
        <ele>252</ele>
        <time>2019-04-15T07:34:34Z</time>
      </trkpt>
      <trkpt lat="47.15746" lon="5.67738">
        <ele>251</ele>
        <time>2019-04-15T07:34:38Z</time>
      </trkpt>
      <trkpt lat="47.1575" lon="5.67743">
        <ele>251</ele>
        <time>2019-04-15T07:34:42Z</time>
      </trkpt>
      <trkpt lat="47.15752" lon="5.67751">
        <ele>251</ele>
        <time>2019-04-15T07:34:46Z</time>
      </trkpt>
      <trkpt lat="47.15755" lon="5.67758">
        <ele>251</ele>
        <time>2019-04-15T07:34:50Z</time>
      </trkpt>
      <trkpt lat="47.15762" lon="5.67767">
        <ele>250</ele>
        <time>2019-04-15T07:34:59Z</time>
      </trkpt>
      <trkpt lat="47.15766" lon="5.67773">
        <ele>251</ele>
        <time>2019-04-15T07:35:04Z</time>
      </trkpt>
      <trkpt lat="47.15768" lon="5.67779">
        <ele>251</ele>
        <time>2019-04-15T07:35:08Z</time>
      </trkpt>
      <trkpt lat="47.15771" lon="5.67785">
        <ele>250</ele>
        <time>2019-04-15T07:35:12Z</time>
      </trkpt>
      <trkpt lat="47.15775" lon="5.67792">
        <ele>250</ele>
        <time>2019-04-15T07:35:17Z</time>
      </trkpt>
      <trkpt lat="47.15776" lon="5.67799">
        <ele>251</ele>
        <time>2019-04-15T07:35:21Z</time>
      </trkpt>
      <trkpt lat="47.15781" lon="5.67811">
        <ele>250</ele>
        <time>2019-04-15T07:35:29Z</time>
      </trkpt>
      <trkpt lat="47.15783" lon="5.67826">
        <ele>252</ele>
        <time>2019-04-15T07:35:38Z</time>
      </trkpt>
      <trkpt lat="47.15788" lon="5.67834">
        <ele>252</ele>
        <time>2019-04-15T07:35:44Z</time>
      </trkpt>
      <trkpt lat="47.15791" lon="5.67849">
        <ele>253</ele>
        <time>2019-04-15T07:35:54Z</time>
      </trkpt>
      <trkpt lat="47.15792" lon="5.67856">
        <ele>253</ele>
        <time>2019-04-15T07:35:59Z</time>
      </trkpt>
      <trkpt lat="47.15793" lon="5.67864">
        <ele>253</ele>
        <time>2019-04-15T07:36:03Z</time>
      </trkpt>
      <trkpt lat="47.15796" lon="5.67869">
        <ele>253</ele>
        <time>2019-04-15T07:36:06Z</time>
      </trkpt>
      <trkpt lat="47.15798" lon="5.67876">
        <ele>253</ele>
        <time>2019-04-15T07:36:11Z</time>
      </trkpt>
      <trkpt lat="47.158" lon="5.67883">
        <ele>253</ele>
        <time>2019-04-15T07:36:15Z</time>
      </trkpt>
      <trkpt lat="47.15804" lon="5.67888">
        <ele>253</ele>
        <time>2019-04-15T07:36:19Z</time>
      </trkpt>
      <trkpt lat="47.15814" lon="5.67929">
        <ele>254</ele>
        <time>2019-04-15T07:36:43Z</time>
      </trkpt>
      <trkpt lat="47.15821" lon="5.67942">
        <ele>254</ele>
        <time>2019-04-15T07:36:54Z</time>
      </trkpt>
      <trkpt lat="47.15824" lon="5.67955">
        <ele>254</ele>
        <time>2019-04-15T07:37:02Z</time>
      </trkpt>
      <trkpt lat="47.15833" lon="5.6798">
        <ele>255</ele>
        <time>2019-04-15T07:37:18Z</time>
      </trkpt>
      <trkpt lat="47.15837" lon="5.67994">
        <ele>256</ele>
        <time>2019-04-15T07:37:26Z</time>
      </trkpt>
      <trkpt lat="47.15845" lon="5.68025">
        <ele>256</ele>
        <time>2019-04-15T07:37:48Z</time>
      </trkpt>
      <trkpt lat="47.15858" lon="5.68066">
        <ele>259</ele>
        <time>2019-04-15T07:38:20Z</time>
      </trkpt>
      <trkpt lat="47.15872" lon="5.68119">
        <ele>262</ele>
        <time>2019-04-15T07:38:51Z</time>
      </trkpt>
      <trkpt lat="47.15878" lon="5.68134">
        <ele>262</ele>
        <time>2019-04-15T07:39:04Z</time>
      </trkpt>
      <trkpt lat="47.15882" lon="5.6815">
        <ele>263</ele>
        <time>2019-04-15T07:39:14Z</time>
      </trkpt>
      <trkpt lat="47.15889" lon="5.68162">
        <ele>263</ele>
        <time>2019-04-15T07:39:23Z</time>
      </trkpt>
      <trkpt lat="47.15891" lon="5.68176">
        <ele>261</ele>
        <time>2019-04-15T07:39:30Z</time>
      </trkpt>
      <trkpt lat="47.15898" lon="5.68203">
        <ele>263</ele>
        <time>2019-04-15T07:39:45Z</time>
      </trkpt>
      <trkpt lat="47.15905" lon="5.68213">
        <ele>263</ele>
        <time>2019-04-15T07:39:52Z</time>
      </trkpt>
      <trkpt lat="47.15909" lon="5.68231">
        <ele>265</ele>
        <time>2019-04-15T07:40:06Z</time>
      </trkpt>
      <trkpt lat="47.15914" lon="5.68249">
        <ele>267</ele>
        <time>2019-04-15T07:40:17Z</time>
      </trkpt>
      <trkpt lat="47.15918" lon="5.6826">
        <ele>266</ele>
        <time>2019-04-15T07:40:24Z</time>
      </trkpt>
      <trkpt lat="47.15924" lon="5.68275">
        <ele>265</ele>
        <time>2019-04-15T07:40:35Z</time>
      </trkpt>
      <trkpt lat="47.15931" lon="5.68284">
        <ele>265</ele>
        <time>2019-04-15T07:40:43Z</time>
      </trkpt>
      <trkpt lat="47.15924" lon="5.68294">
        <ele>264</ele>
        <time>2019-04-15T07:41:11Z</time>
      </trkpt>
      <trkpt lat="47.15931" lon="5.68306">
        <ele>262</ele>
        <time>2019-04-15T07:41:41Z</time>
      </trkpt>
      <trkpt lat="47.15942" lon="5.68304">
        <ele>259</ele>
        <time>2019-04-15T07:44:16Z</time>
      </trkpt>
      <trkpt lat="47.15951" lon="5.6832">
        <ele>262</ele>
        <time>2019-04-15T07:45:03Z</time>
      </trkpt>
      <trkpt lat="47.15969" lon="5.68347">
        <ele>260</ele>
        <time>2019-04-15T07:45:28Z</time>
      </trkpt>
      <trkpt lat="47.15974" lon="5.68358">
        <ele>261</ele>
        <time>2019-04-15T07:45:37Z</time>
      </trkpt>
      <trkpt lat="47.15988" lon="5.68384">
        <ele>261</ele>
        <time>2019-04-15T07:45:59Z</time>
      </trkpt>
      <trkpt lat="47.15995" lon="5.68394">
        <ele>260</ele>
        <time>2019-04-15T07:46:08Z</time>
      </trkpt>
      <trkpt lat="47.16002" lon="5.68412">
        <ele>260</ele>
        <time>2019-04-15T07:46:24Z</time>
      </trkpt>
      <trkpt lat="47.16002" lon="5.68428">
        <ele>260</ele>
        <time>2019-04-15T07:46:37Z</time>
      </trkpt>
      <trkpt lat="47.15991" lon="5.68459">
        <ele>262</ele>
        <time>2019-04-15T07:47:02Z</time>
      </trkpt>
      <trkpt lat="47.15983" lon="5.68483">
        <ele>258</ele>
        <time>2019-04-15T07:47:45Z</time>
      </trkpt>
      <trkpt lat="47.15979" lon="5.68494">
        <ele>259</ele>
        <time>2019-04-15T07:47:54Z</time>
      </trkpt>
      <trkpt lat="47.15976" lon="5.68511">
        <ele>260</ele>
        <time>2019-04-15T07:48:04Z</time>
      </trkpt>
      <trkpt lat="47.15974" lon="5.68525">
        <ele>261</ele>
        <time>2019-04-15T07:48:11Z</time>
      </trkpt>
      <trkpt lat="47.1596" lon="5.68546">
        <ele>259</ele>
        <time>2019-04-15T07:48:26Z</time>
      </trkpt>
      <trkpt lat="47.15958" lon="5.6856">
        <ele>258</ele>
        <time>2019-04-15T07:48:34Z</time>
      </trkpt>
      <trkpt lat="47.15959" lon="5.68576">
        <ele>258</ele>
        <time>2019-04-15T07:48:45Z</time>
      </trkpt>
      <trkpt lat="47.15953" lon="5.68619">
        <ele>258</ele>
        <time>2019-04-15T07:49:06Z</time>
      </trkpt>
      <trkpt lat="47.15951" lon="5.68632">
        <ele>257</ele>
        <time>2019-04-15T07:49:14Z</time>
      </trkpt>
      <trkpt lat="47.15946" lon="5.6866">
        <ele>258</ele>
        <time>2019-04-15T07:49:32Z</time>
      </trkpt>
      <trkpt lat="47.15944" lon="5.68671">
        <ele>257</ele>
        <time>2019-04-15T07:49:39Z</time>
      </trkpt>
      <trkpt lat="47.15943" lon="5.68678">
        <ele>258</ele>
        <time>2019-04-15T07:49:43Z</time>
      </trkpt>
      <trkpt lat="47.15943" lon="5.68684">
        <ele>257</ele>
        <time>2019-04-15T07:49:47Z</time>
      </trkpt>
      <trkpt lat="47.15941" lon="5.68691">
        <ele>257</ele>
        <time>2019-04-15T07:49:51Z</time>
      </trkpt>
      <trkpt lat="47.15939" lon="5.68698">
        <ele>258</ele>
        <time>2019-04-15T07:49:55Z</time>
      </trkpt>
      <trkpt lat="47.15936" lon="5.68705">
        <ele>257</ele>
        <time>2019-04-15T07:49:59Z</time>
      </trkpt>
      <trkpt lat="47.15935" lon="5.68712">
        <ele>257</ele>
        <time>2019-04-15T07:50:03Z</time>
      </trkpt>
      <trkpt lat="47.15933" lon="5.68719">
        <ele>257</ele>
        <time>2019-04-15T07:50:07Z</time>
      </trkpt>
      <trkpt lat="47.15932" lon="5.68729">
        <ele>256</ele>
        <time>2019-04-15T07:50:14Z</time>
      </trkpt>
      <trkpt lat="47.15931" lon="5.68737">
        <ele>256</ele>
        <time>2019-04-15T07:50:19Z</time>
      </trkpt>
      <trkpt lat="47.15931" lon="5.68744">
        <ele>256</ele>
        <time>2019-04-15T07:50:23Z</time>
      </trkpt>
      <trkpt lat="47.1593" lon="5.6876">
        <ele>257</ele>
        <time>2019-04-15T07:50:32Z</time>
      </trkpt>
      <trkpt lat="47.15928" lon="5.68783">
        <ele>256</ele>
        <time>2019-04-15T07:50:45Z</time>
      </trkpt>
      <trkpt lat="47.15928" lon="5.68791">
        <ele>256</ele>
        <time>2019-04-15T07:50:50Z</time>
      </trkpt>
      <trkpt lat="47.15928" lon="5.68797">
        <ele>256</ele>
        <time>2019-04-15T07:50:54Z</time>
      </trkpt>
      <trkpt lat="47.15927" lon="5.68804">
        <ele>256</ele>
        <time>2019-04-15T07:50:58Z</time>
      </trkpt>
      <trkpt lat="47.15926" lon="5.6882">
        <ele>255</ele>
        <time>2019-04-15T07:51:06Z</time>
      </trkpt>
      <trkpt lat="47.15925" lon="5.68827">
        <ele>255</ele>
        <time>2019-04-15T07:51:10Z</time>
      </trkpt>
      <trkpt lat="47.15924" lon="5.68842">
        <ele>255</ele>
        <time>2019-04-15T07:51:19Z</time>
      </trkpt>
      <trkpt lat="47.15922" lon="5.68865">
        <ele>254</ele>
        <time>2019-04-15T07:51:32Z</time>
      </trkpt>
      <trkpt lat="47.1592" lon="5.68889">
        <ele>255</ele>
        <time>2019-04-15T07:51:49Z</time>
      </trkpt>
      <trkpt lat="47.15919" lon="5.68914">
        <ele>255</ele>
        <time>2019-04-15T07:52:05Z</time>
      </trkpt>
      <trkpt lat="47.15918" lon="5.68921">
        <ele>255</ele>
        <time>2019-04-15T07:52:09Z</time>
      </trkpt>
      <trkpt lat="47.15918" lon="5.68928">
        <ele>255</ele>
        <time>2019-04-15T07:52:14Z</time>
      </trkpt>
      <trkpt lat="47.15915" lon="5.68935">
        <ele>254</ele>
        <time>2019-04-15T07:52:28Z</time>
      </trkpt>
      <trkpt lat="47.15916" lon="5.68942">
        <ele>254</ele>
        <time>2019-04-15T07:52:46Z</time>
      </trkpt>
      <trkpt lat="47.15915" lon="5.6895">
        <ele>254</ele>
        <time>2019-04-15T07:52:52Z</time>
      </trkpt>
      <trkpt lat="47.15915" lon="5.68956">
        <ele>254</ele>
        <time>2019-04-15T07:52:56Z</time>
      </trkpt>
      <trkpt lat="47.15916" lon="5.68974">
        <ele>253</ele>
        <time>2019-04-15T07:53:09Z</time>
      </trkpt>
      <trkpt lat="47.15914" lon="5.6898">
        <ele>253</ele>
        <time>2019-04-15T07:53:14Z</time>
      </trkpt>
      <trkpt lat="47.15919" lon="5.68987">
        <ele>252</ele>
        <time>2019-04-15T07:53:22Z</time>
      </trkpt>
      <trkpt lat="47.15924" lon="5.6899">
        <ele>252</ele>
        <time>2019-04-15T07:53:27Z</time>
      </trkpt>
      <trkpt lat="47.15944" lon="5.68999">
        <ele>251</ele>
        <time>2019-04-15T07:53:43Z</time>
      </trkpt>
      <trkpt lat="47.15948" lon="5.69001">
        <ele>252</ele>
        <time>2019-04-15T07:53:47Z</time>
      </trkpt>
      <trkpt lat="47.15953" lon="5.69003">
        <ele>252</ele>
        <time>2019-04-15T07:53:51Z</time>
      </trkpt>
      <trkpt lat="47.15973" lon="5.69011">
        <ele>251</ele>
        <time>2019-04-15T07:54:08Z</time>
      </trkpt>
      <trkpt lat="47.15983" lon="5.69014">
        <ele>251</ele>
        <time>2019-04-15T07:54:16Z</time>
      </trkpt>
      <trkpt lat="47.15988" lon="5.69015">
        <ele>251</ele>
        <time>2019-04-15T07:54:20Z</time>
      </trkpt>
      <trkpt lat="47.15998" lon="5.69018">
        <ele>251</ele>
        <time>2019-04-15T07:54:28Z</time>
      </trkpt>
      <trkpt lat="47.16002" lon="5.69021">
        <ele>251</ele>
        <time>2019-04-15T07:54:32Z</time>
      </trkpt>
      <trkpt lat="47.16007" lon="5.69024">
        <ele>251</ele>
        <time>2019-04-15T07:54:36Z</time>
      </trkpt>
      <trkpt lat="47.16012" lon="5.69027">
        <ele>251</ele>
        <time>2019-04-15T07:54:40Z</time>
      </trkpt>
      <trkpt lat="47.16022" lon="5.69032">
        <ele>250</ele>
        <time>2019-04-15T07:54:48Z</time>
      </trkpt>
      <trkpt lat="47.1603" lon="5.69039">
        <ele>249</ele>
        <time>2019-04-15T07:54:56Z</time>
      </trkpt>
      <trkpt lat="47.16039" lon="5.69043">
        <ele>250</ele>
        <time>2019-04-15T07:55:04Z</time>
      </trkpt>
      <trkpt lat="47.16044" lon="5.69045">
        <ele>249</ele>
        <time>2019-04-15T07:55:08Z</time>
      </trkpt>
      <trkpt lat="47.16048" lon="5.69048">
        <ele>250</ele>
        <time>2019-04-15T07:55:12Z</time>
      </trkpt>
      <trkpt lat="47.16053" lon="5.69052">
        <ele>251</ele>
        <time>2019-04-15T07:55:16Z</time>
      </trkpt>
      <trkpt lat="47.16062" lon="5.69057">
        <ele>249</ele>
        <time>2019-04-15T07:55:23Z</time>
      </trkpt>
      <trkpt lat="47.16067" lon="5.69058">
        <ele>248</ele>
        <time>2019-04-15T07:55:27Z</time>
      </trkpt>
      <trkpt lat="47.16076" lon="5.69062">
        <ele>248</ele>
        <time>2019-04-15T07:55:35Z</time>
      </trkpt>
      <trkpt lat="47.16103" lon="5.6908">
        <ele>253</ele>
        <time>2019-04-15T07:56:05Z</time>
      </trkpt>
      <trkpt lat="47.16109" lon="5.69084">
        <ele>253</ele>
        <time>2019-04-15T07:56:12Z</time>
      </trkpt>
      <trkpt lat="47.16115" lon="5.69089">
        <ele>254</ele>
        <time>2019-04-15T07:56:19Z</time>
      </trkpt>
      <trkpt lat="47.1612" lon="5.6909">
        <ele>254</ele>
        <time>2019-04-15T07:56:23Z</time>
      </trkpt>
      <trkpt lat="47.16115" lon="5.69105">
        <ele>256</ele>
        <time>2019-04-15T08:00:40Z</time>
      </trkpt>
      <trkpt lat="47.16132" lon="5.69109">
        <ele>261</ele>
        <time>2019-04-15T08:04:32Z</time>
      </trkpt>
      <trkpt lat="47.16144" lon="5.69122">
        <ele>262</ele>
        <time>2019-04-15T08:04:49Z</time>
      </trkpt>
      <trkpt lat="47.16151" lon="5.6913">
        <ele>262</ele>
        <time>2019-04-15T08:04:55Z</time>
      </trkpt>
      <trkpt lat="47.16188" lon="5.69155">
        <ele>264</ele>
        <time>2019-04-15T08:05:26Z</time>
      </trkpt>
      <trkpt lat="47.16198" lon="5.69159">
        <ele>263</ele>
        <time>2019-04-15T08:05:34Z</time>
      </trkpt>
      <trkpt lat="47.16206" lon="5.69165">
        <ele>263</ele>
        <time>2019-04-15T08:05:42Z</time>
      </trkpt>
      <trkpt lat="47.1623" lon="5.69172">
        <ele>265</ele>
        <time>2019-04-15T08:06:02Z</time>
      </trkpt>
      <trkpt lat="47.1624" lon="5.69174">
        <ele>264</ele>
        <time>2019-04-15T08:06:12Z</time>
      </trkpt>
      <trkpt lat="47.16248" lon="5.69176">
        <ele>264</ele>
        <time>2019-04-15T08:06:19Z</time>
      </trkpt>
      <trkpt lat="47.1626" lon="5.69181">
        <ele>264</ele>
        <time>2019-04-15T08:06:28Z</time>
      </trkpt>
      <trkpt lat="47.16278" lon="5.69191">
        <ele>263</ele>
        <time>2019-04-15T08:06:44Z</time>
      </trkpt>
      <trkpt lat="47.16287" lon="5.69199">
        <ele>264</ele>
        <time>2019-04-15T08:06:56Z</time>
      </trkpt>
      <trkpt lat="47.16296" lon="5.69204">
        <ele>263</ele>
        <time>2019-04-15T08:07:03Z</time>
      </trkpt>
      <trkpt lat="47.16305" lon="5.69213">
        <ele>263</ele>
        <time>2019-04-15T08:07:12Z</time>
      </trkpt>
      <trkpt lat="47.16318" lon="5.69224">
        <ele>261</ele>
        <time>2019-04-15T08:07:30Z</time>
      </trkpt>
      <trkpt lat="47.16323" lon="5.69235">
        <ele>260</ele>
        <time>2019-04-15T08:07:37Z</time>
      </trkpt>
      <trkpt lat="47.1633" lon="5.69247">
        <ele>260</ele>
        <time>2019-04-15T08:07:45Z</time>
      </trkpt>
      <trkpt lat="47.16345" lon="5.69264">
        <ele>260</ele>
        <time>2019-04-15T08:07:58Z</time>
      </trkpt>
      <trkpt lat="47.16352" lon="5.69271">
        <ele>259</ele>
        <time>2019-04-15T08:08:05Z</time>
      </trkpt>
      <trkpt lat="47.16362" lon="5.69271">
        <ele>260</ele>
        <time>2019-04-15T08:08:13Z</time>
      </trkpt>
      <trkpt lat="47.16376" lon="5.6929">
        <ele>260</ele>
        <time>2019-04-15T08:08:29Z</time>
      </trkpt>
      <trkpt lat="47.16386" lon="5.69294">
        <ele>260</ele>
        <time>2019-04-15T08:08:36Z</time>
      </trkpt>
      <trkpt lat="47.16395" lon="5.69308">
        <ele>261</ele>
        <time>2019-04-15T08:08:47Z</time>
      </trkpt>
      <trkpt lat="47.16401" lon="5.69319">
        <ele>261</ele>
        <time>2019-04-15T08:08:53Z</time>
      </trkpt>
      <trkpt lat="47.16409" lon="5.69329">
        <ele>262</ele>
        <time>2019-04-15T08:09:00Z</time>
      </trkpt>
      <trkpt lat="47.16416" lon="5.69338">
        <ele>261</ele>
        <time>2019-04-15T08:09:07Z</time>
      </trkpt>
      <trkpt lat="47.16424" lon="5.69344">
        <ele>260</ele>
        <time>2019-04-15T08:09:14Z</time>
      </trkpt>
      <trkpt lat="47.16431" lon="5.69353">
        <ele>259</ele>
        <time>2019-04-15T08:09:24Z</time>
      </trkpt>
      <trkpt lat="47.16465" lon="5.69382">
        <ele>256</ele>
        <time>2019-04-15T08:09:55Z</time>
      </trkpt>
      <trkpt lat="47.1648" lon="5.69401">
        <ele>257</ele>
        <time>2019-04-15T08:10:09Z</time>
      </trkpt>
      <trkpt lat="47.16484" lon="5.69413">
        <ele>256</ele>
        <time>2019-04-15T08:10:16Z</time>
      </trkpt>
      <trkpt lat="47.16506" lon="5.69432">
        <ele>257</ele>
        <time>2019-04-15T08:10:41Z</time>
      </trkpt>
      <trkpt lat="47.16515" lon="5.69438">
        <ele>257</ele>
        <time>2019-04-15T08:10:51Z</time>
      </trkpt>
      <trkpt lat="47.16547" lon="5.69473">
        <ele>260</ele>
        <time>2019-04-15T08:11:22Z</time>
      </trkpt>
      <trkpt lat="47.16555" lon="5.69477">
        <ele>261</ele>
        <time>2019-04-15T08:11:29Z</time>
      </trkpt>
      <trkpt lat="47.16563" lon="5.69485">
        <ele>260</ele>
        <time>2019-04-15T08:11:37Z</time>
      </trkpt>
      <trkpt lat="47.16571" lon="5.69492">
        <ele>260</ele>
        <time>2019-04-15T08:11:42Z</time>
      </trkpt>
      <trkpt lat="47.16581" lon="5.69505">
        <ele>260</ele>
        <time>2019-04-15T08:11:56Z</time>
      </trkpt>
      <trkpt lat="47.16589" lon="5.69515">
        <ele>261</ele>
        <time>2019-04-15T08:12:03Z</time>
      </trkpt>
      <trkpt lat="47.16594" lon="5.69526">
        <ele>261</ele>
        <time>2019-04-15T08:12:12Z</time>
      </trkpt>
      <trkpt lat="47.16603" lon="5.69535">
        <ele>262</ele>
        <time>2019-04-15T08:12:20Z</time>
      </trkpt>
      <trkpt lat="47.16611" lon="5.69543">
        <ele>262</ele>
        <time>2019-04-15T08:12:25Z</time>
      </trkpt>
      <trkpt lat="47.16618" lon="5.69552">
        <ele>262</ele>
        <time>2019-04-15T08:12:33Z</time>
      </trkpt>
      <trkpt lat="47.16648" lon="5.69585">
        <ele>261</ele>
        <time>2019-04-15T08:13:04Z</time>
      </trkpt>
      <trkpt lat="47.16657" lon="5.69591">
        <ele>262</ele>
        <time>2019-04-15T08:13:12Z</time>
      </trkpt>
      <trkpt lat="47.16666" lon="5.69594">
        <ele>261</ele>
        <time>2019-04-15T08:13:19Z</time>
      </trkpt>
      <trkpt lat="47.16674" lon="5.69603">
        <ele>261</ele>
        <time>2019-04-15T08:13:25Z</time>
      </trkpt>
      <trkpt lat="47.16679" lon="5.69614">
        <ele>261</ele>
        <time>2019-04-15T08:13:34Z</time>
      </trkpt>
      <trkpt lat="47.16695" lon="5.6963">
        <ele>261</ele>
        <time>2019-04-15T08:13:51Z</time>
      </trkpt>
      <trkpt lat="47.16713" lon="5.69644">
        <ele>260</ele>
        <time>2019-04-15T08:14:06Z</time>
      </trkpt>
      <trkpt lat="47.1672" lon="5.69654">
        <ele>260</ele>
        <time>2019-04-15T08:14:13Z</time>
      </trkpt>
      <trkpt lat="47.16704" lon="5.69654">
        <ele>255</ele>
        <time>2019-04-15T08:15:40Z</time>
      </trkpt>
      <trkpt lat="47.16661" lon="5.69641">
        <ele>253</ele>
        <time>2019-04-15T08:16:14Z</time>
      </trkpt>
      <trkpt lat="47.16652" lon="5.6964">
        <ele>254</ele>
        <time>2019-04-15T08:16:21Z</time>
      </trkpt>
      <trkpt lat="47.16634" lon="5.69637">
        <ele>253</ele>
        <time>2019-04-15T08:16:38Z</time>
      </trkpt>
      <trkpt lat="47.16618" lon="5.69634">
        <ele>255</ele>
        <time>2019-04-15T08:16:53Z</time>
      </trkpt>
      <trkpt lat="47.16608" lon="5.69635">
        <ele>254</ele>
        <time>2019-04-15T08:17:00Z</time>
      </trkpt>
      <trkpt lat="47.16598" lon="5.69634">
        <ele>254</ele>
        <time>2019-04-15T08:17:08Z</time>
      </trkpt>
      <trkpt lat="47.16588" lon="5.69633">
        <ele>254</ele>
        <time>2019-04-15T08:17:17Z</time>
      </trkpt>
      <trkpt lat="47.16579" lon="5.69627">
        <ele>255</ele>
        <time>2019-04-15T08:17:25Z</time>
      </trkpt>
      <trkpt lat="47.16567" lon="5.6962">
        <ele>255</ele>
        <time>2019-04-15T08:17:33Z</time>
      </trkpt>
      <trkpt lat="47.16557" lon="5.6962">
        <ele>256</ele>
        <time>2019-04-15T08:17:40Z</time>
      </trkpt>
      <trkpt lat="47.16549" lon="5.69619">
        <ele>256</ele>
        <time>2019-04-15T08:17:46Z</time>
      </trkpt>
      <trkpt lat="47.16539" lon="5.6962">
        <ele>255</ele>
        <time>2019-04-15T08:17:55Z</time>
      </trkpt>
      <trkpt lat="47.16519" lon="5.69617">
        <ele>256</ele>
        <time>2019-04-15T08:18:11Z</time>
      </trkpt>
      <trkpt lat="47.16509" lon="5.69618">
        <ele>256</ele>
        <time>2019-04-15T08:18:18Z</time>
      </trkpt>
      <trkpt lat="47.165" lon="5.6962">
        <ele>256</ele>
        <time>2019-04-15T08:18:24Z</time>
      </trkpt>
      <trkpt lat="47.16491" lon="5.69622">
        <ele>256</ele>
        <time>2019-04-15T08:18:33Z</time>
      </trkpt>
      <trkpt lat="47.16462" lon="5.69625">
        <ele>255</ele>
        <time>2019-04-15T08:18:56Z</time>
      </trkpt>
      <trkpt lat="47.16453" lon="5.69628">
        <ele>255</ele>
        <time>2019-04-15T08:19:04Z</time>
      </trkpt>
      <trkpt lat="47.16444" lon="5.69629">
        <ele>256</ele>
        <time>2019-04-15T08:19:10Z</time>
      </trkpt>
      <trkpt lat="47.16415" lon="5.69631">
        <ele>252</ele>
        <time>2019-04-15T08:19:29Z</time>
      </trkpt>
      <trkpt lat="47.16387" lon="5.69641">
        <ele>250</ele>
        <time>2019-04-15T08:19:52Z</time>
      </trkpt>
      <trkpt lat="47.16378" lon="5.69647">
        <ele>250</ele>
        <time>2019-04-15T08:20:02Z</time>
      </trkpt>
      <trkpt lat="47.16332" lon="5.69659">
        <ele>250</ele>
        <time>2019-04-15T08:20:35Z</time>
      </trkpt>
      <trkpt lat="47.16322" lon="5.69661">
        <ele>250</ele>
        <time>2019-04-15T08:20:42Z</time>
      </trkpt>
      <trkpt lat="47.16311" lon="5.69661">
        <ele>249</ele>
        <time>2019-04-15T08:20:48Z</time>
      </trkpt>
      <trkpt lat="47.16283" lon="5.69672">
        <ele>247</ele>
        <time>2019-04-15T08:21:09Z</time>
      </trkpt>
      <trkpt lat="47.16274" lon="5.69674">
        <ele>248</ele>
        <time>2019-04-15T08:21:17Z</time>
      </trkpt>
      <trkpt lat="47.16265" lon="5.69676">
        <ele>248</ele>
        <time>2019-04-15T08:21:25Z</time>
      </trkpt>
      <trkpt lat="47.16246" lon="5.69685">
        <ele>248</ele>
        <time>2019-04-15T08:21:41Z</time>
      </trkpt>
      <trkpt lat="47.16218" lon="5.69699">
        <ele>246</ele>
        <time>2019-04-15T08:22:03Z</time>
      </trkpt>
      <trkpt lat="47.16199" lon="5.69705">
        <ele>246</ele>
        <time>2019-04-15T08:22:16Z</time>
      </trkpt>
      <trkpt lat="47.1619" lon="5.6971">
        <ele>246</ele>
        <time>2019-04-15T08:22:25Z</time>
      </trkpt>
      <trkpt lat="47.1617" lon="5.69713">
        <ele>246</ele>
        <time>2019-04-15T08:22:39Z</time>
      </trkpt>
      <trkpt lat="47.1616" lon="5.69715">
        <ele>246</ele>
        <time>2019-04-15T08:22:46Z</time>
      </trkpt>
      <trkpt lat="47.16151" lon="5.69718">
        <ele>246</ele>
        <time>2019-04-15T08:22:54Z</time>
      </trkpt>
      <trkpt lat="47.16142" lon="5.69721">
        <ele>246</ele>
        <time>2019-04-15T08:23:02Z</time>
      </trkpt>
      <trkpt lat="47.16133" lon="5.69726">
        <ele>245</ele>
        <time>2019-04-15T08:23:11Z</time>
      </trkpt>
      <trkpt lat="47.16114" lon="5.69731">
        <ele>244</ele>
        <time>2019-04-15T08:23:25Z</time>
      </trkpt>
      <trkpt lat="47.16105" lon="5.69734">
        <ele>245</ele>
        <time>2019-04-15T08:23:32Z</time>
      </trkpt>
      <trkpt lat="47.16095" lon="5.69732">
        <ele>245</ele>
        <time>2019-04-15T08:23:39Z</time>
      </trkpt>
      <trkpt lat="47.16058" lon="5.69737">
        <ele>244</ele>
        <time>2019-04-15T08:24:11Z</time>
      </trkpt>
      <trkpt lat="47.16048" lon="5.69738">
        <ele>242</ele>
        <time>2019-04-15T08:24:19Z</time>
      </trkpt>
      <trkpt lat="47.16039" lon="5.69734">
        <ele>243</ele>
        <time>2019-04-15T08:24:26Z</time>
      </trkpt>
      <trkpt lat="47.16029" lon="5.69732">
        <ele>242</ele>
        <time>2019-04-15T08:24:33Z</time>
      </trkpt>
      <trkpt lat="47.16021" lon="5.6973">
        <ele>243</ele>
        <time>2019-04-15T08:24:39Z</time>
      </trkpt>
      <trkpt lat="47.16014" lon="5.69719">
        <ele>242</ele>
        <time>2019-04-15T08:24:52Z</time>
      </trkpt>
      <trkpt lat="47.16013" lon="5.69711">
        <ele>241</ele>
        <time>2019-04-15T08:24:57Z</time>
      </trkpt>
      <trkpt lat="47.16011" lon="5.69698">
        <ele>242</ele>
        <time>2019-04-15T08:25:05Z</time>
      </trkpt>
      <trkpt lat="47.16009" lon="5.6969">
        <ele>242</ele>
        <time>2019-04-15T08:25:09Z</time>
      </trkpt>
      <trkpt lat="47.16003" lon="5.6968">
        <ele>242</ele>
        <time>2019-04-15T08:25:16Z</time>
      </trkpt>
      <trkpt lat="47.15995" lon="5.69655">
        <ele>244</ele>
        <time>2019-04-15T08:25:33Z</time>
      </trkpt>
      <trkpt lat="47.1598" lon="5.69635">
        <ele>242</ele>
        <time>2019-04-15T08:25:52Z</time>
      </trkpt>
      <trkpt lat="47.15973" lon="5.69626">
        <ele>243</ele>
        <time>2019-04-15T08:26:01Z</time>
      </trkpt>
      <trkpt lat="47.15966" lon="5.69616">
        <ele>243</ele>
        <time>2019-04-15T08:26:09Z</time>
      </trkpt>
      <trkpt lat="47.15962" lon="5.69611">
        <ele>244</ele>
        <time>2019-04-15T08:26:14Z</time>
      </trkpt>
      <trkpt lat="47.15949" lon="5.6959">
        <ele>244</ele>
        <time>2019-04-15T08:26:29Z</time>
      </trkpt>
      <trkpt lat="47.15941" lon="5.69583">
        <ele>244</ele>
        <time>2019-04-15T08:26:36Z</time>
      </trkpt>
      <trkpt lat="47.15934" lon="5.69574">
        <ele>245</ele>
        <time>2019-04-15T08:26:43Z</time>
      </trkpt>
      <trkpt lat="47.15927" lon="5.69565">
        <ele>244</ele>
        <time>2019-04-15T08:26:50Z</time>
      </trkpt>
      <trkpt lat="47.15914" lon="5.69547">
        <ele>245</ele>
        <time>2019-04-15T08:27:05Z</time>
      </trkpt>
      <trkpt lat="47.15901" lon="5.69533">
        <ele>245</ele>
        <time>2019-04-15T08:27:16Z</time>
      </trkpt>
      <trkpt lat="47.15896" lon="5.69528">
        <ele>245</ele>
        <time>2019-04-15T08:27:19Z</time>
      </trkpt>
      <trkpt lat="47.15892" lon="5.69523">
        <ele>245</ele>
        <time>2019-04-15T08:27:23Z</time>
      </trkpt>
      <trkpt lat="47.1588" lon="5.69509">
        <ele>245</ele>
        <time>2019-04-15T08:27:33Z</time>
      </trkpt>
      <trkpt lat="47.15876" lon="5.69503">
        <ele>245</ele>
        <time>2019-04-15T08:27:37Z</time>
      </trkpt>
      <trkpt lat="47.15872" lon="5.69498">
        <ele>245</ele>
        <time>2019-04-15T08:27:41Z</time>
      </trkpt>
      <trkpt lat="47.15869" lon="5.69494">
        <ele>245</ele>
        <time>2019-04-15T08:27:45Z</time>
      </trkpt>
      <trkpt lat="47.15865" lon="5.69489">
        <ele>244</ele>
        <time>2019-04-15T08:27:49Z</time>
      </trkpt>
      <trkpt lat="47.15861" lon="5.69484">
        <ele>243</ele>
        <time>2019-04-15T08:27:53Z</time>
      </trkpt>
      <trkpt lat="47.15857" lon="5.69479">
        <ele>243</ele>
        <time>2019-04-15T08:27:57Z</time>
      </trkpt>
      <trkpt lat="47.15843" lon="5.69463">
        <ele>243</ele>
        <time>2019-04-15T08:28:13Z</time>
      </trkpt>
      <trkpt lat="47.15839" lon="5.69456">
        <ele>242</ele>
        <time>2019-04-15T08:28:18Z</time>
      </trkpt>
      <trkpt lat="47.15835" lon="5.69451">
        <ele>243</ele>
        <time>2019-04-15T08:28:22Z</time>
      </trkpt>
      <trkpt lat="47.15823" lon="5.69435">
        <ele>243</ele>
        <time>2019-04-15T08:28:34Z</time>
      </trkpt>
      <trkpt lat="47.15815" lon="5.69427">
        <ele>243</ele>
        <time>2019-04-15T08:28:42Z</time>
      </trkpt>
      <trkpt lat="47.15811" lon="5.69423">
        <ele>242</ele>
        <time>2019-04-15T08:28:46Z</time>
      </trkpt>
      <trkpt lat="47.15806" lon="5.69419">
        <ele>242</ele>
        <time>2019-04-15T08:28:50Z</time>
      </trkpt>
      <trkpt lat="47.15801" lon="5.69416">
        <ele>242</ele>
        <time>2019-04-15T08:28:55Z</time>
      </trkpt>
      <trkpt lat="47.15797" lon="5.69412">
        <ele>242</ele>
        <time>2019-04-15T08:28:59Z</time>
      </trkpt>
      <trkpt lat="47.15788" lon="5.69393">
        <ele>243</ele>
        <time>2019-04-15T08:29:10Z</time>
      </trkpt>
      <trkpt lat="47.15783" lon="5.69382">
        <ele>242</ele>
        <time>2019-04-15T08:29:17Z</time>
      </trkpt>
      <trkpt lat="47.1578" lon="5.69376">
        <ele>243</ele>
        <time>2019-04-15T08:29:21Z</time>
      </trkpt>
      <trkpt lat="47.15777" lon="5.69369">
        <ele>243</ele>
        <time>2019-04-15T08:29:25Z</time>
      </trkpt>
      <trkpt lat="47.15774" lon="5.69363">
        <ele>243</ele>
        <time>2019-04-15T08:29:29Z</time>
      </trkpt>
      <trkpt lat="47.15769" lon="5.69352">
        <ele>243</ele>
        <time>2019-04-15T08:29:37Z</time>
      </trkpt>
      <trkpt lat="47.15766" lon="5.69346">
        <ele>244</ele>
        <time>2019-04-15T08:29:41Z</time>
      </trkpt>
      <trkpt lat="47.15763" lon="5.6934">
        <ele>243</ele>
        <time>2019-04-15T08:29:45Z</time>
      </trkpt>
      <trkpt lat="47.15756" lon="5.6933">
        <ele>243</ele>
        <time>2019-04-15T08:29:53Z</time>
      </trkpt>
      <trkpt lat="47.15752" lon="5.69326">
        <ele>243</ele>
        <time>2019-04-15T08:29:56Z</time>
      </trkpt>
      <trkpt lat="47.15748" lon="5.69322">
        <ele>243</ele>
        <time>2019-04-15T08:29:59Z</time>
      </trkpt>
      <trkpt lat="47.15743" lon="5.69319">
        <ele>242</ele>
        <time>2019-04-15T08:30:03Z</time>
      </trkpt>
      <trkpt lat="47.15737" lon="5.69317">
        <ele>242</ele>
        <time>2019-04-15T08:30:07Z</time>
      </trkpt>
      <trkpt lat="47.15726" lon="5.69312">
        <ele>241</ele>
        <time>2019-04-15T08:30:15Z</time>
      </trkpt>
      <trkpt lat="47.15714" lon="5.69304">
        <ele>241</ele>
        <time>2019-04-15T08:30:24Z</time>
      </trkpt>
      <trkpt lat="47.15709" lon="5.693">
        <ele>241</ele>
        <time>2019-04-15T08:30:28Z</time>
      </trkpt>
      <trkpt lat="47.157" lon="5.69294">
        <ele>241</ele>
        <time>2019-04-15T08:30:36Z</time>
      </trkpt>
      <trkpt lat="47.15692" lon="5.69288">
        <ele>243</ele>
        <time>2019-04-15T08:30:44Z</time>
      </trkpt>
      <trkpt lat="47.15687" lon="5.69286">
        <ele>243</ele>
        <time>2019-04-15T08:30:48Z</time>
      </trkpt>
      <trkpt lat="47.15678" lon="5.69281">
        <ele>243</ele>
        <time>2019-04-15T08:30:56Z</time>
      </trkpt>
      <trkpt lat="47.15668" lon="5.69276">
        <ele>243</ele>
        <time>2019-04-15T08:31:05Z</time>
      </trkpt>
      <trkpt lat="47.1563" lon="5.69254">
        <ele>245</ele>
        <time>2019-04-15T08:31:39Z</time>
      </trkpt>
      <trkpt lat="47.15603" lon="5.69238">
        <ele>248</ele>
        <time>2019-04-15T08:32:05Z</time>
      </trkpt>
      <trkpt lat="47.15599" lon="5.69234">
        <ele>249</ele>
        <time>2019-04-15T08:32:09Z</time>
      </trkpt>
      <trkpt lat="47.15595" lon="5.69232">
        <ele>248</ele>
        <time>2019-04-15T08:32:12Z</time>
      </trkpt>
      <trkpt lat="47.15589" lon="5.69229">
        <ele>248</ele>
        <time>2019-04-15T08:32:16Z</time>
      </trkpt>
      <trkpt lat="47.15585" lon="5.69226">
        <ele>249</ele>
        <time>2019-04-15T08:32:20Z</time>
      </trkpt>
      <trkpt lat="47.15581" lon="5.69223">
        <ele>249</ele>
        <time>2019-04-15T08:32:25Z</time>
      </trkpt>
      <trkpt lat="47.15572" lon="5.69219">
        <ele>250</ele>
        <time>2019-04-15T08:32:34Z</time>
      </trkpt>
      <trkpt lat="47.15562" lon="5.69216">
        <ele>248</ele>
        <time>2019-04-15T08:32:43Z</time>
      </trkpt>
      <trkpt lat="47.15546" lon="5.69211">
        <ele>248</ele>
        <time>2019-04-15T08:32:56Z</time>
      </trkpt>
      <trkpt lat="47.15526" lon="5.69205">
        <ele>244</ele>
        <time>2019-04-15T08:33:10Z</time>
      </trkpt>
      <trkpt lat="47.15521" lon="5.69203">
        <ele>244</ele>
        <time>2019-04-15T08:33:13Z</time>
      </trkpt>
      <trkpt lat="47.15515" lon="5.69201">
        <ele>244</ele>
        <time>2019-04-15T08:33:17Z</time>
      </trkpt>
      <trkpt lat="47.15505" lon="5.69196">
        <ele>244</ele>
        <time>2019-04-15T08:33:25Z</time>
      </trkpt>
      <trkpt lat="47.15488" lon="5.6919">
        <ele>243</ele>
        <time>2019-04-15T08:33:37Z</time>
      </trkpt>
      <trkpt lat="47.15483" lon="5.69189">
        <ele>243</ele>
        <time>2019-04-15T08:33:41Z</time>
      </trkpt>
      <trkpt lat="47.1547" lon="5.69183">
        <ele>242</ele>
        <time>2019-04-15T08:33:53Z</time>
      </trkpt>
      <trkpt lat="47.15461" lon="5.69177">
        <ele>242</ele>
        <time>2019-04-15T08:34:01Z</time>
      </trkpt>
      <trkpt lat="47.15456" lon="5.69172">
        <ele>241</ele>
        <time>2019-04-15T08:34:05Z</time>
      </trkpt>
      <trkpt lat="47.15444" lon="5.69158">
        <ele>240</ele>
        <time>2019-04-15T08:34:19Z</time>
      </trkpt>
      <trkpt lat="47.15438" lon="5.69146">
        <ele>241</ele>
        <time>2019-04-15T08:34:27Z</time>
      </trkpt>
      <trkpt lat="47.15435" lon="5.6914">
        <ele>240</ele>
        <time>2019-04-15T08:34:32Z</time>
      </trkpt>
      <trkpt lat="47.15433" lon="5.69134">
        <ele>240</ele>
        <time>2019-04-15T08:34:36Z</time>
      </trkpt>
      <trkpt lat="47.15429" lon="5.69119">
        <ele>241</ele>
        <time>2019-04-15T08:34:44Z</time>
      </trkpt>
      <trkpt lat="47.15427" lon="5.69112">
        <ele>241</ele>
        <time>2019-04-15T08:34:48Z</time>
      </trkpt>
      <trkpt lat="47.15426" lon="5.69105">
        <ele>241</ele>
        <time>2019-04-15T08:34:51Z</time>
      </trkpt>
      <trkpt lat="47.15421" lon="5.69091">
        <ele>241</ele>
        <time>2019-04-15T08:34:59Z</time>
      </trkpt>
      <trkpt lat="47.15419" lon="5.69084">
        <ele>241</ele>
        <time>2019-04-15T08:35:03Z</time>
      </trkpt>
      <trkpt lat="47.15417" lon="5.69076">
        <ele>241</ele>
        <time>2019-04-15T08:35:07Z</time>
      </trkpt>
      <trkpt lat="47.15413" lon="5.69063">
        <ele>241</ele>
        <time>2019-04-15T08:35:15Z</time>
      </trkpt>
      <trkpt lat="47.15411" lon="5.69055">
        <ele>241</ele>
        <time>2019-04-15T08:35:19Z</time>
      </trkpt>
      <trkpt lat="47.15408" lon="5.69048">
        <ele>240</ele>
        <time>2019-04-15T08:35:23Z</time>
      </trkpt>
      <trkpt lat="47.15407" lon="5.69042">
        <ele>240</ele>
        <time>2019-04-15T08:35:27Z</time>
      </trkpt>
      <trkpt lat="47.15404" lon="5.69028">
        <ele>243</ele>
        <time>2019-04-15T08:35:35Z</time>
      </trkpt>
      <trkpt lat="47.154" lon="5.69004">
        <ele>242</ele>
        <time>2019-04-15T08:35:47Z</time>
      </trkpt>
      <trkpt lat="47.15398" lon="5.68997">
        <ele>242</ele>
        <time>2019-04-15T08:35:51Z</time>
      </trkpt>
      <trkpt lat="47.15396" lon="5.68989">
        <ele>241</ele>
        <time>2019-04-15T08:35:55Z</time>
      </trkpt>
      <trkpt lat="47.15391" lon="5.68959">
        <ele>239</ele>
        <time>2019-04-15T08:36:11Z</time>
      </trkpt>
      <trkpt lat="47.15386" lon="5.68938">
        <ele>240</ele>
        <time>2019-04-15T08:36:22Z</time>
      </trkpt>
      <trkpt lat="47.15385" lon="5.68931">
        <ele>240</ele>
        <time>2019-04-15T08:36:26Z</time>
      </trkpt>
      <trkpt lat="47.15383" lon="5.68916">
        <ele>241</ele>
        <time>2019-04-15T08:36:34Z</time>
      </trkpt>
      <trkpt lat="47.15382" lon="5.68908">
        <ele>240</ele>
        <time>2019-04-15T08:36:38Z</time>
      </trkpt>
      <trkpt lat="47.1538" lon="5.689">
        <ele>241</ele>
        <time>2019-04-15T08:36:42Z</time>
      </trkpt>
      <trkpt lat="47.15378" lon="5.68893">
        <ele>240</ele>
        <time>2019-04-15T08:36:46Z</time>
      </trkpt>
      <trkpt lat="47.15377" lon="5.68886">
        <ele>240</ele>
        <time>2019-04-15T08:36:50Z</time>
      </trkpt>
      <trkpt lat="47.15373" lon="5.68856">
        <ele>242</ele>
        <time>2019-04-15T08:37:07Z</time>
      </trkpt>
      <trkpt lat="47.15365" lon="5.68798">
        <ele>242</ele>
        <time>2019-04-15T08:37:38Z</time>
      </trkpt>
      <trkpt lat="47.15364" lon="5.68782">
        <ele>244</ele>
        <time>2019-04-15T08:37:47Z</time>
      </trkpt>
      <trkpt lat="47.15362" lon="5.68775">
        <ele>243</ele>
        <time>2019-04-15T08:37:51Z</time>
      </trkpt>
      <trkpt lat="47.15359" lon="5.68761">
        <ele>244</ele>
        <time>2019-04-15T08:37:59Z</time>
      </trkpt>
      <trkpt lat="47.15359" lon="5.68753">
        <ele>244</ele>
        <time>2019-04-15T08:38:03Z</time>
      </trkpt>
      <trkpt lat="47.15359" lon="5.68746">
        <ele>245</ele>
        <time>2019-04-15T08:38:07Z</time>
      </trkpt>
      <trkpt lat="47.15356" lon="5.68721">
        <ele>245</ele>
        <time>2019-04-15T08:38:19Z</time>
      </trkpt>
      <trkpt lat="47.15355" lon="5.68713">
        <ele>244</ele>
        <time>2019-04-15T08:38:23Z</time>
      </trkpt>
      <trkpt lat="47.15354" lon="5.68699">
        <ele>245</ele>
        <time>2019-04-15T08:38:32Z</time>
      </trkpt>
      <trkpt lat="47.15352" lon="5.68684">
        <ele>244</ele>
        <time>2019-04-15T08:38:41Z</time>
      </trkpt>
      <trkpt lat="47.15351" lon="5.68677">
        <ele>245</ele>
        <time>2019-04-15T08:38:45Z</time>
      </trkpt>
      <trkpt lat="47.1535" lon="5.6867">
        <ele>244</ele>
        <time>2019-04-15T08:38:49Z</time>
      </trkpt>
      <trkpt lat="47.15347" lon="5.6864">
        <ele>246</ele>
        <time>2019-04-15T08:39:05Z</time>
      </trkpt>
      <trkpt lat="47.15342" lon="5.68619">
        <ele>245</ele>
        <time>2019-04-15T08:39:17Z</time>
      </trkpt>
      <trkpt lat="47.15341" lon="5.68612">
        <ele>245</ele>
        <time>2019-04-15T08:39:21Z</time>
      </trkpt>
      <trkpt lat="47.15338" lon="5.68606">
        <ele>245</ele>
        <time>2019-04-15T08:39:25Z</time>
      </trkpt>
      <trkpt lat="47.15335" lon="5.68599">
        <ele>245</ele>
        <time>2019-04-15T08:39:29Z</time>
      </trkpt>
      <trkpt lat="47.15333" lon="5.68592">
        <ele>245</ele>
        <time>2019-04-15T08:39:34Z</time>
      </trkpt>
      <trkpt lat="47.15326" lon="5.68582">
        <ele>246</ele>
        <time>2019-04-15T08:39:42Z</time>
      </trkpt>
      <trkpt lat="47.15317" lon="5.68574">
        <ele>245</ele>
        <time>2019-04-15T08:39:50Z</time>
      </trkpt>
      <trkpt lat="47.15307" lon="5.68568">
        <ele>244</ele>
        <time>2019-04-15T08:39:58Z</time>
      </trkpt>
      <trkpt lat="47.15302" lon="5.68564">
        <ele>244</ele>
        <time>2019-04-15T08:40:02Z</time>
      </trkpt>
      <trkpt lat="47.15297" lon="5.68562">
        <ele>244</ele>
        <time>2019-04-15T08:40:06Z</time>
      </trkpt>
      <trkpt lat="47.15273" lon="5.68553">
        <ele>245</ele>
        <time>2019-04-15T08:40:26Z</time>
      </trkpt>
      <trkpt lat="47.15258" lon="5.68555">
        <ele>245</ele>
        <time>2019-04-15T08:40:39Z</time>
      </trkpt>
      <trkpt lat="47.15227" lon="5.68549">
        <ele>248</ele>
        <time>2019-04-15T08:41:11Z</time>
      </trkpt>
      <trkpt lat="47.15222" lon="5.68548">
        <ele>248</ele>
        <time>2019-04-15T08:41:15Z</time>
      </trkpt>
      <trkpt lat="47.15213" lon="5.68545">
        <ele>249</ele>
        <time>2019-04-15T08:41:25Z</time>
      </trkpt>
      <trkpt lat="47.15209" lon="5.68544">
        <ele>249</ele>
        <time>2019-04-15T08:41:28Z</time>
      </trkpt>
      <trkpt lat="47.15199" lon="5.68541">
        <ele>248</ele>
        <time>2019-04-15T08:41:36Z</time>
      </trkpt>
      <trkpt lat="47.15195" lon="5.68538">
        <ele>249</ele>
        <time>2019-04-15T08:41:40Z</time>
      </trkpt>
      <trkpt lat="47.1519" lon="5.68537">
        <ele>249</ele>
        <time>2019-04-15T08:41:44Z</time>
      </trkpt>
      <trkpt lat="47.15169" lon="5.68531">
        <ele>248</ele>
        <time>2019-04-15T08:41:57Z</time>
      </trkpt>
      <trkpt lat="47.15141" lon="5.68523">
        <ele>245</ele>
        <time>2019-04-15T08:42:13Z</time>
      </trkpt>
      <trkpt lat="47.15136" lon="5.68521">
        <ele>246</ele>
        <time>2019-04-15T08:42:16Z</time>
      </trkpt>
      <trkpt lat="47.15131" lon="5.6852">
        <ele>245</ele>
        <time>2019-04-15T08:42:20Z</time>
      </trkpt>
      <trkpt lat="47.15102" lon="5.68509">
        <ele>242</ele>
        <time>2019-04-15T08:42:42Z</time>
      </trkpt>
      <trkpt lat="47.15092" lon="5.68507">
        <ele>243</ele>
        <time>2019-04-15T08:42:50Z</time>
      </trkpt>
      <trkpt lat="47.15087" lon="5.68505">
        <ele>243</ele>
        <time>2019-04-15T08:42:54Z</time>
      </trkpt>
      <trkpt lat="47.15082" lon="5.68503">
        <ele>242</ele>
        <time>2019-04-15T08:42:58Z</time>
      </trkpt>
      <trkpt lat="47.15067" lon="5.68498">
        <ele>243</ele>
        <time>2019-04-15T08:43:10Z</time>
      </trkpt>
      <trkpt lat="47.1503" lon="5.68479">
        <ele>246</ele>
        <time>2019-04-15T08:43:42Z</time>
      </trkpt>
      <trkpt lat="47.15025" lon="5.68476">
        <ele>247</ele>
        <time>2019-04-15T08:43:47Z</time>
      </trkpt>
      <trkpt lat="47.15016" lon="5.68471">
        <ele>247</ele>
        <time>2019-04-15T08:43:57Z</time>
      </trkpt>
      <trkpt lat="47.15003" lon="5.68467">
        <ele>248</ele>
        <time>2019-04-15T08:44:09Z</time>
      </trkpt>
      <trkpt lat="47.14994" lon="5.68462">
        <ele>248</ele>
        <time>2019-04-15T08:44:16Z</time>
      </trkpt>
      <trkpt lat="47.14987" lon="5.68459">
        <ele>248</ele>
        <time>2019-04-15T08:44:22Z</time>
      </trkpt>
      <trkpt lat="47.14982" lon="5.68457">
        <ele>248</ele>
        <time>2019-04-15T08:44:25Z</time>
      </trkpt>
      <trkpt lat="47.14978" lon="5.68456">
        <ele>248</ele>
        <time>2019-04-15T08:44:29Z</time>
      </trkpt>
      <trkpt lat="47.14973" lon="5.68455">
        <ele>248</ele>
        <time>2019-04-15T08:44:33Z</time>
      </trkpt>
      <trkpt lat="47.14966" lon="5.68457">
        <ele>248</ele>
        <time>2019-04-15T08:44:40Z</time>
      </trkpt>
      <trkpt lat="47.14961" lon="5.6846">
        <ele>248</ele>
        <time>2019-04-15T08:44:49Z</time>
      </trkpt>
      <trkpt lat="47.14951" lon="5.68461">
        <ele>249</ele>
        <time>2019-04-15T08:44:57Z</time>
      </trkpt>
      <trkpt lat="47.14946" lon="5.68463">
        <ele>249</ele>
        <time>2019-04-15T08:45:01Z</time>
      </trkpt>
      <trkpt lat="47.14942" lon="5.68466">
        <ele>250</ele>
        <time>2019-04-15T08:45:05Z</time>
      </trkpt>
      <trkpt lat="47.14938" lon="5.68471">
        <ele>250</ele>
        <time>2019-04-15T08:45:10Z</time>
      </trkpt>
      <trkpt lat="47.14933" lon="5.68472">
        <ele>251</ele>
        <time>2019-04-15T08:45:14Z</time>
      </trkpt>
      <trkpt lat="47.14929" lon="5.68472">
        <ele>251</ele>
        <time>2019-04-15T08:45:17Z</time>
      </trkpt>
      <trkpt lat="47.1492" lon="5.68478">
        <ele>250</ele>
        <time>2019-04-15T08:45:27Z</time>
      </trkpt>
      <trkpt lat="47.14915" lon="5.68476">
        <ele>250</ele>
        <time>2019-04-15T08:45:32Z</time>
      </trkpt>
      <trkpt lat="47.14911" lon="5.68472">
        <ele>250</ele>
        <time>2019-04-15T08:45:36Z</time>
      </trkpt>
      <trkpt lat="47.14903" lon="5.68463">
        <ele>250</ele>
        <time>2019-04-15T08:45:43Z</time>
      </trkpt>
      <trkpt lat="47.14899" lon="5.68459">
        <ele>250</ele>
        <time>2019-04-15T08:45:47Z</time>
      </trkpt>
      <trkpt lat="47.14895" lon="5.68452">
        <ele>250</ele>
        <time>2019-04-15T08:45:54Z</time>
      </trkpt>
      <trkpt lat="47.14887" lon="5.68443">
        <ele>251</ele>
        <time>2019-04-15T08:46:03Z</time>
      </trkpt>
      <trkpt lat="47.14883" lon="5.6844">
        <ele>251</ele>
        <time>2019-04-15T08:46:06Z</time>
      </trkpt>
      <trkpt lat="47.1486" lon="5.68423">
        <ele>251</ele>
        <time>2019-04-15T08:46:29Z</time>
      </trkpt>
      <trkpt lat="47.14856" lon="5.68419">
        <ele>250</ele>
        <time>2019-04-15T08:46:32Z</time>
      </trkpt>
      <trkpt lat="47.14852" lon="5.68415">
        <ele>250</ele>
        <time>2019-04-15T08:46:35Z</time>
      </trkpt>
      <trkpt lat="47.14847" lon="5.68411">
        <ele>250</ele>
        <time>2019-04-15T08:46:39Z</time>
      </trkpt>
      <trkpt lat="47.14843" lon="5.68408">
        <ele>248</ele>
        <time>2019-04-15T08:46:43Z</time>
      </trkpt>
      <trkpt lat="47.1483" lon="5.68394">
        <ele>248</ele>
        <time>2019-04-15T08:46:59Z</time>
      </trkpt>
      <trkpt lat="47.14825" lon="5.68391">
        <ele>248</ele>
        <time>2019-04-15T08:47:03Z</time>
      </trkpt>
      <trkpt lat="47.14812" lon="5.68379">
        <ele>248</ele>
        <time>2019-04-15T08:47:15Z</time>
      </trkpt>
      <trkpt lat="47.14808" lon="5.68373">
        <ele>246</ele>
        <time>2019-04-15T08:47:19Z</time>
      </trkpt>
      <trkpt lat="47.14804" lon="5.6837">
        <ele>246</ele>
        <time>2019-04-15T08:47:23Z</time>
      </trkpt>
      <trkpt lat="47.148" lon="5.68364">
        <ele>246</ele>
        <time>2019-04-15T08:47:28Z</time>
      </trkpt>
      <trkpt lat="47.14797" lon="5.68359">
        <ele>245</ele>
        <time>2019-04-15T08:47:32Z</time>
      </trkpt>
      <trkpt lat="47.14789" lon="5.6835">
        <ele>245</ele>
        <time>2019-04-15T08:47:40Z</time>
      </trkpt>
      <trkpt lat="47.14777" lon="5.68337">
        <ele>245</ele>
        <time>2019-04-15T08:47:52Z</time>
      </trkpt>
      <trkpt lat="47.14769" lon="5.68328">
        <ele>244</ele>
        <time>2019-04-15T08:48:00Z</time>
      </trkpt>
      <trkpt lat="47.14762" lon="5.68319">
        <ele>244</ele>
        <time>2019-04-15T08:48:08Z</time>
      </trkpt>
      <trkpt lat="47.14758" lon="5.68314">
        <ele>244</ele>
        <time>2019-04-15T08:48:13Z</time>
      </trkpt>
      <trkpt lat="47.14759" lon="5.68305">
        <ele>246</ele>
        <time>2019-04-15T08:48:21Z</time>
      </trkpt>
      <trkpt lat="47.14766" lon="5.68296">
        <ele>246</ele>
        <time>2019-04-15T08:48:29Z</time>
      </trkpt>
      <trkpt lat="47.1477" lon="5.68291">
        <ele>247</ele>
        <time>2019-04-15T08:48:33Z</time>
      </trkpt>
      <trkpt lat="47.14774" lon="5.68286">
        <ele>246</ele>
        <time>2019-04-15T08:48:38Z</time>
      </trkpt>
      <trkpt lat="47.14778" lon="5.68281">
        <ele>247</ele>
        <time>2019-04-15T08:48:42Z</time>
      </trkpt>
      <trkpt lat="47.14785" lon="5.68274">
        <ele>246</ele>
        <time>2019-04-15T08:48:48Z</time>
      </trkpt>
      <trkpt lat="47.14788" lon="5.68268">
        <ele>246</ele>
        <time>2019-04-15T08:48:51Z</time>
      </trkpt>
      <trkpt lat="47.1479" lon="5.68262">
        <ele>246</ele>
        <time>2019-04-15T08:48:55Z</time>
      </trkpt>
      <trkpt lat="47.14793" lon="5.68256">
        <ele>246</ele>
        <time>2019-04-15T08:49:00Z</time>
      </trkpt>
      <trkpt lat="47.14801" lon="5.68245">
        <ele>247</ele>
        <time>2019-04-15T08:49:09Z</time>
      </trkpt>
      <trkpt lat="47.14804" lon="5.6824">
        <ele>246</ele>
        <time>2019-04-15T08:49:13Z</time>
      </trkpt>
      <trkpt lat="47.14808" lon="5.68235">
        <ele>247</ele>
        <time>2019-04-15T08:49:17Z</time>
      </trkpt>
      <trkpt lat="47.14817" lon="5.68225">
        <ele>246</ele>
        <time>2019-04-15T08:49:26Z</time>
      </trkpt>
      <trkpt lat="47.1482" lon="5.6822">
        <ele>246</ele>
        <time>2019-04-15T08:49:30Z</time>
      </trkpt>
      <trkpt lat="47.14824" lon="5.68213">
        <ele>246</ele>
        <time>2019-04-15T08:49:35Z</time>
      </trkpt>
      <trkpt lat="47.1484" lon="5.68194">
        <ele>245</ele>
        <time>2019-04-15T08:49:51Z</time>
      </trkpt>
      <trkpt lat="47.14844" lon="5.68189">
        <ele>246</ele>
        <time>2019-04-15T08:49:55Z</time>
      </trkpt>
      <trkpt lat="47.14847" lon="5.68184">
        <ele>245</ele>
        <time>2019-04-15T08:49:59Z</time>
      </trkpt>
      <trkpt lat="47.1485" lon="5.68177">
        <ele>245</ele>
        <time>2019-04-15T08:50:03Z</time>
      </trkpt>
      <trkpt lat="47.14853" lon="5.68172">
        <ele>245</ele>
        <time>2019-04-15T08:50:07Z</time>
      </trkpt>
      <trkpt lat="47.1486" lon="5.68153">
        <ele>245</ele>
        <time>2019-04-15T08:50:19Z</time>
      </trkpt>
      <trkpt lat="47.14863" lon="5.68139">
        <ele>245</ele>
        <time>2019-04-15T08:50:27Z</time>
      </trkpt>
      <trkpt lat="47.14865" lon="5.68132">
        <ele>245</ele>
        <time>2019-04-15T08:50:31Z</time>
      </trkpt>
      <trkpt lat="47.14867" lon="5.68116">
        <ele>245</ele>
        <time>2019-04-15T08:50:39Z</time>
      </trkpt>
      <trkpt lat="47.14871" lon="5.68093">
        <ele>246</ele>
        <time>2019-04-15T08:50:51Z</time>
      </trkpt>
      <trkpt lat="47.14873" lon="5.68079">
        <ele>245</ele>
        <time>2019-04-15T08:50:59Z</time>
      </trkpt>
      <trkpt lat="47.14875" lon="5.68066">
        <ele>246</ele>
        <time>2019-04-15T08:51:07Z</time>
      </trkpt>
      <trkpt lat="47.14876" lon="5.68051">
        <ele>245</ele>
        <time>2019-04-15T08:51:16Z</time>
      </trkpt>
      <trkpt lat="47.14877" lon="5.68044">
        <ele>245</ele>
        <time>2019-04-15T08:51:20Z</time>
      </trkpt>
      <trkpt lat="47.14878" lon="5.68037">
        <ele>245</ele>
        <time>2019-04-15T08:51:24Z</time>
      </trkpt>
      <trkpt lat="47.14881" lon="5.68017">
        <ele>245</ele>
        <time>2019-04-15T08:51:36Z</time>
      </trkpt>
      <trkpt lat="47.14881" lon="5.6801">
        <ele>246</ele>
        <time>2019-04-15T08:51:40Z</time>
      </trkpt>
      <trkpt lat="47.14881" lon="5.68002">
        <ele>245</ele>
        <time>2019-04-15T08:51:44Z</time>
      </trkpt>
      <trkpt lat="47.14881" lon="5.67995">
        <ele>246</ele>
        <time>2019-04-15T08:51:48Z</time>
      </trkpt>
      <trkpt lat="47.14883" lon="5.67987">
        <ele>246</ele>
        <time>2019-04-15T08:51:52Z</time>
      </trkpt>
      <trkpt lat="47.14885" lon="5.6798">
        <ele>246</ele>
        <time>2019-04-15T08:51:56Z</time>
      </trkpt>
      <trkpt lat="47.14885" lon="5.67973">
        <ele>246</ele>
        <time>2019-04-15T08:52:00Z</time>
      </trkpt>
      <trkpt lat="47.14887" lon="5.67966">
        <ele>246</ele>
        <time>2019-04-15T08:52:04Z</time>
      </trkpt>
      <trkpt lat="47.14888" lon="5.67959">
        <ele>246</ele>
        <time>2019-04-15T08:52:08Z</time>
      </trkpt>
      <trkpt lat="47.14889" lon="5.67951">
        <ele>247</ele>
        <time>2019-04-15T08:52:12Z</time>
      </trkpt>
      <trkpt lat="47.14892" lon="5.67946">
        <ele>247</ele>
        <time>2019-04-15T08:52:15Z</time>
      </trkpt>
      <trkpt lat="47.14896" lon="5.6794">
        <ele>247</ele>
        <time>2019-04-15T08:52:19Z</time>
      </trkpt>
      <trkpt lat="47.149" lon="5.67935">
        <ele>247</ele>
        <time>2019-04-15T08:52:23Z</time>
      </trkpt>
      <trkpt lat="47.14915" lon="5.67931">
        <ele>247</ele>
        <time>2019-04-15T08:52:34Z</time>
      </trkpt>
      <trkpt lat="47.14921" lon="5.6793">
        <ele>246</ele>
        <time>2019-04-15T08:52:38Z</time>
      </trkpt>
      <trkpt lat="47.14926" lon="5.67929">
        <ele>246</ele>
        <time>2019-04-15T08:52:42Z</time>
      </trkpt>
      <trkpt lat="47.14931" lon="5.67928">
        <ele>247</ele>
        <time>2019-04-15T08:52:46Z</time>
      </trkpt>
      <trkpt lat="47.14936" lon="5.67927">
        <ele>247</ele>
        <time>2019-04-15T08:52:50Z</time>
      </trkpt>
      <trkpt lat="47.14941" lon="5.67927">
        <ele>247</ele>
        <time>2019-04-15T08:52:54Z</time>
      </trkpt>
      <trkpt lat="47.14951" lon="5.67924">
        <ele>246</ele>
        <time>2019-04-15T08:53:01Z</time>
      </trkpt>
      <trkpt lat="47.14956" lon="5.67923">
        <ele>246</ele>
        <time>2019-04-15T08:53:05Z</time>
      </trkpt>
      <trkpt lat="47.14961" lon="5.67924">
        <ele>246</ele>
        <time>2019-04-15T08:53:09Z</time>
      </trkpt>
      <trkpt lat="47.14965" lon="5.67921">
        <ele>246</ele>
        <time>2019-04-15T08:53:13Z</time>
      </trkpt>
      <trkpt lat="47.14968" lon="5.67916">
        <ele>247</ele>
        <time>2019-04-15T08:53:17Z</time>
      </trkpt>
      <trkpt lat="47.14969" lon="5.67908">
        <ele>247</ele>
        <time>2019-04-15T08:53:22Z</time>
      </trkpt>
      <trkpt lat="47.14968" lon="5.67902">
        <ele>246</ele>
        <time>2019-04-15T08:53:26Z</time>
      </trkpt>
      <trkpt lat="47.14967" lon="5.67894">
        <ele>247</ele>
        <time>2019-04-15T08:53:30Z</time>
      </trkpt>
      <trkpt lat="47.14966" lon="5.67887">
        <ele>248</ele>
        <time>2019-04-15T08:53:34Z</time>
      </trkpt>
      <trkpt lat="47.14965" lon="5.67872">
        <ele>247</ele>
        <time>2019-04-15T08:53:42Z</time>
      </trkpt>
      <trkpt lat="47.14964" lon="5.67864">
        <ele>246</ele>
        <time>2019-04-15T08:53:46Z</time>
      </trkpt>
      <trkpt lat="47.14962" lon="5.6785">
        <ele>245</ele>
        <time>2019-04-15T08:53:53Z</time>
      </trkpt>
      <trkpt lat="47.14961" lon="5.67842">
        <ele>246</ele>
        <time>2019-04-15T08:53:58Z</time>
      </trkpt>
      <trkpt lat="47.14961" lon="5.67835">
        <ele>245</ele>
        <time>2019-04-15T08:54:02Z</time>
      </trkpt>
      <trkpt lat="47.14959" lon="5.67827">
        <ele>245</ele>
        <time>2019-04-15T08:54:06Z</time>
      </trkpt>
      <trkpt lat="47.14958" lon="5.67818">
        <ele>244</ele>
        <time>2019-04-15T08:54:10Z</time>
      </trkpt>
      <trkpt lat="47.14958" lon="5.67811">
        <ele>245</ele>
        <time>2019-04-15T08:54:14Z</time>
      </trkpt>
      <trkpt lat="47.14956" lon="5.67802">
        <ele>245</ele>
        <time>2019-04-15T08:54:18Z</time>
      </trkpt>
      <trkpt lat="47.14956" lon="5.67787">
        <ele>245</ele>
        <time>2019-04-15T08:54:26Z</time>
      </trkpt>
      <trkpt lat="47.14956" lon="5.67779">
        <ele>245</ele>
        <time>2019-04-15T08:54:30Z</time>
      </trkpt>
      <trkpt lat="47.14956" lon="5.67771">
        <ele>245</ele>
        <time>2019-04-15T08:54:34Z</time>
      </trkpt>
      <trkpt lat="47.14955" lon="5.67764">
        <ele>245</ele>
        <time>2019-04-15T08:54:38Z</time>
      </trkpt>
      <trkpt lat="47.14954" lon="5.67756">
        <ele>245</ele>
        <time>2019-04-15T08:54:42Z</time>
      </trkpt>
      <trkpt lat="47.14951" lon="5.67728">
        <ele>246</ele>
        <time>2019-04-15T08:55:00Z</time>
      </trkpt>
      <trkpt lat="47.14951" lon="5.67721">
        <ele>246</ele>
        <time>2019-04-15T08:55:04Z</time>
      </trkpt>
      <trkpt lat="47.1495" lon="5.67712">
        <ele>247</ele>
        <time>2019-04-15T08:55:08Z</time>
      </trkpt>
      <trkpt lat="47.14949" lon="5.67689">
        <ele>247</ele>
        <time>2019-04-15T08:55:19Z</time>
      </trkpt>
      <trkpt lat="47.14948" lon="5.67681">
        <ele>247</ele>
        <time>2019-04-15T08:55:24Z</time>
      </trkpt>
      <trkpt lat="47.14945" lon="5.67659">
        <ele>246</ele>
        <time>2019-04-15T08:55:36Z</time>
      </trkpt>
      <trkpt lat="47.14943" lon="5.67628">
        <ele>246</ele>
        <time>2019-04-15T08:55:51Z</time>
      </trkpt>
      <trkpt lat="47.14942" lon="5.67621">
        <ele>247</ele>
        <time>2019-04-15T08:55:55Z</time>
      </trkpt>
      <trkpt lat="47.14939" lon="5.67582">
        <ele>246</ele>
        <time>2019-04-15T08:56:14Z</time>
      </trkpt>
      <trkpt lat="47.14939" lon="5.67575">
        <ele>247</ele>
        <time>2019-04-15T08:56:18Z</time>
      </trkpt>
      <trkpt lat="47.14938" lon="5.67566">
        <ele>246</ele>
        <time>2019-04-15T08:56:23Z</time>
      </trkpt>
      <trkpt lat="47.14937" lon="5.67558">
        <ele>246</ele>
        <time>2019-04-15T08:56:28Z</time>
      </trkpt>
      <trkpt lat="47.14936" lon="5.67551">
        <ele>247</ele>
        <time>2019-04-15T08:56:32Z</time>
      </trkpt>
      <trkpt lat="47.14935" lon="5.67535">
        <ele>245</ele>
        <time>2019-04-15T08:56:40Z</time>
      </trkpt>
      <trkpt lat="47.14934" lon="5.67528">
        <ele>245</ele>
        <time>2019-04-15T08:56:44Z</time>
      </trkpt>
      <trkpt lat="47.14933" lon="5.6752">
        <ele>245</ele>
        <time>2019-04-15T08:56:48Z</time>
      </trkpt>
      <trkpt lat="47.14932" lon="5.67512">
        <ele>245</ele>
        <time>2019-04-15T08:56:52Z</time>
      </trkpt>
      <trkpt lat="47.14931" lon="5.67505">
        <ele>246</ele>
        <time>2019-04-15T08:56:56Z</time>
      </trkpt>
      <trkpt lat="47.14931" lon="5.67497">
        <ele>245</ele>
        <time>2019-04-15T08:57:00Z</time>
      </trkpt>
      <trkpt lat="47.14928" lon="5.67475">
        <ele>245</ele>
        <time>2019-04-15T08:57:12Z</time>
      </trkpt>
      <trkpt lat="47.14928" lon="5.67453">
        <ele>247</ele>
        <time>2019-04-15T08:57:24Z</time>
      </trkpt>
      <trkpt lat="47.14926" lon="5.67436">
        <ele>246</ele>
        <time>2019-04-15T08:57:32Z</time>
      </trkpt>
      <trkpt lat="47.14925" lon="5.67429">
        <ele>246</ele>
        <time>2019-04-15T08:57:36Z</time>
      </trkpt>
      <trkpt lat="47.14924" lon="5.67422">
        <ele>246</ele>
        <time>2019-04-15T08:57:40Z</time>
      </trkpt>
      <trkpt lat="47.14924" lon="5.67414">
        <ele>246</ele>
        <time>2019-04-15T08:57:44Z</time>
      </trkpt>
      <trkpt lat="47.14924" lon="5.674">
        <ele>247</ele>
        <time>2019-04-15T08:57:52Z</time>
      </trkpt>
      <trkpt lat="47.14921" lon="5.67385">
        <ele>245</ele>
        <time>2019-04-15T08:58:00Z</time>
      </trkpt>
      <trkpt lat="47.14917" lon="5.67347">
        <ele>246</ele>
        <time>2019-04-15T08:58:20Z</time>
      </trkpt>
      <trkpt lat="47.14917" lon="5.67333">
        <ele>246</ele>
        <time>2019-04-15T08:58:28Z</time>
      </trkpt>
      <trkpt lat="47.14917" lon="5.67325">
        <ele>247</ele>
        <time>2019-04-15T08:58:32Z</time>
      </trkpt>
      <trkpt lat="47.14916" lon="5.67317">
        <ele>247</ele>
        <time>2019-04-15T08:58:36Z</time>
      </trkpt>
      <trkpt lat="47.14913" lon="5.67279">
        <ele>247</ele>
        <time>2019-04-15T08:58:56Z</time>
      </trkpt>
      <trkpt lat="47.14911" lon="5.67272">
        <ele>246</ele>
        <time>2019-04-15T08:59:00Z</time>
      </trkpt>
      <trkpt lat="47.1491" lon="5.67265">
        <ele>246</ele>
        <time>2019-04-15T08:59:04Z</time>
      </trkpt>
      <trkpt lat="47.14911" lon="5.67257">
        <ele>245</ele>
        <time>2019-04-15T08:59:08Z</time>
      </trkpt>
      <trkpt lat="47.1491" lon="5.67249">
        <ele>245</ele>
        <time>2019-04-15T08:59:12Z</time>
      </trkpt>
      <trkpt lat="47.1491" lon="5.67242">
        <ele>245</ele>
        <time>2019-04-15T08:59:15Z</time>
      </trkpt>
      <trkpt lat="47.14908" lon="5.67226">
        <ele>246</ele>
        <time>2019-04-15T08:59:23Z</time>
      </trkpt>
      <trkpt lat="47.14906" lon="5.67202">
        <ele>246</ele>
        <time>2019-04-15T08:59:35Z</time>
      </trkpt>
      <trkpt lat="47.14904" lon="5.67191">
        <ele>246</ele>
        <time>2019-04-15T08:59:41Z</time>
      </trkpt>
      <trkpt lat="47.14904" lon="5.67183">
        <ele>245</ele>
        <time>2019-04-15T08:59:45Z</time>
      </trkpt>
      <trkpt lat="47.14905" lon="5.67176">
        <ele>246</ele>
        <time>2019-04-15T08:59:50Z</time>
      </trkpt>
      <trkpt lat="47.14903" lon="5.67161">
        <ele>247</ele>
        <time>2019-04-15T08:59:58Z</time>
      </trkpt>
      <trkpt lat="47.14903" lon="5.67154">
        <ele>247</ele>
        <time>2019-04-15T09:00:02Z</time>
      </trkpt>
      <trkpt lat="47.14903" lon="5.67146">
        <ele>247</ele>
        <time>2019-04-15T09:00:06Z</time>
      </trkpt>
      <trkpt lat="47.14903" lon="5.67139">
        <ele>248</ele>
        <time>2019-04-15T09:00:09Z</time>
      </trkpt>
      <trkpt lat="47.14903" lon="5.67132">
        <ele>247</ele>
        <time>2019-04-15T09:00:13Z</time>
      </trkpt>
      <trkpt lat="47.14903" lon="5.67124">
        <ele>247</ele>
        <time>2019-04-15T09:00:17Z</time>
      </trkpt>
      <trkpt lat="47.14902" lon="5.67117">
        <ele>247</ele>
        <time>2019-04-15T09:00:21Z</time>
      </trkpt>
      <trkpt lat="47.149" lon="5.67101">
        <ele>246</ele>
        <time>2019-04-15T09:00:29Z</time>
      </trkpt>
      <trkpt lat="47.14898" lon="5.67094">
        <ele>246</ele>
        <time>2019-04-15T09:00:33Z</time>
      </trkpt>
      <trkpt lat="47.14897" lon="5.67086">
        <ele>246</ele>
        <time>2019-04-15T09:00:37Z</time>
      </trkpt>
      <trkpt lat="47.14892" lon="5.67063">
        <ele>244</ele>
        <time>2019-04-15T09:00:48Z</time>
      </trkpt>
      <trkpt lat="47.14891" lon="5.67056">
        <ele>244</ele>
        <time>2019-04-15T09:00:52Z</time>
      </trkpt>
      <trkpt lat="47.14892" lon="5.67041">
        <ele>244</ele>
        <time>2019-04-15T09:01:01Z</time>
      </trkpt>
      <trkpt lat="47.14892" lon="5.67032">
        <ele>244</ele>
        <time>2019-04-15T09:01:07Z</time>
      </trkpt>
      <trkpt lat="47.14891" lon="5.67024">
        <ele>245</ele>
        <time>2019-04-15T09:01:11Z</time>
      </trkpt>
      <trkpt lat="47.14889" lon="5.67019">
        <ele>245</ele>
        <time>2019-04-15T09:01:14Z</time>
      </trkpt>
      <trkpt lat="47.14887" lon="5.67012">
        <ele>244</ele>
        <time>2019-04-15T09:01:18Z</time>
      </trkpt>
      <trkpt lat="47.14887" lon="5.67004">
        <ele>244</ele>
        <time>2019-04-15T09:01:22Z</time>
      </trkpt>
      <trkpt lat="47.14881" lon="5.66947">
        <ele>245</ele>
        <time>2019-04-15T09:01:51Z</time>
      </trkpt>
      <trkpt lat="47.14879" lon="5.66924">
        <ele>245</ele>
        <time>2019-04-15T09:02:02Z</time>
      </trkpt>
      <trkpt lat="47.14878" lon="5.66909">
        <ele>245</ele>
        <time>2019-04-15T09:02:10Z</time>
      </trkpt>
      <trkpt lat="47.14877" lon="5.66895">
        <ele>246</ele>
        <time>2019-04-15T09:02:17Z</time>
      </trkpt>
      <trkpt lat="47.14876" lon="5.66881">
        <ele>246</ele>
        <time>2019-04-15T09:02:25Z</time>
      </trkpt>
      <trkpt lat="47.14873" lon="5.66867">
        <ele>248</ele>
        <time>2019-04-15T09:02:33Z</time>
      </trkpt>
      <trkpt lat="47.14871" lon="5.66854">
        <ele>247</ele>
        <time>2019-04-15T09:02:40Z</time>
      </trkpt>
      <trkpt lat="47.1487" lon="5.66825">
        <ele>248</ele>
        <time>2019-04-15T09:02:55Z</time>
      </trkpt>
      <trkpt lat="47.14866" lon="5.66812">
        <ele>247</ele>
        <time>2019-04-15T09:03:02Z</time>
      </trkpt>
      <trkpt lat="47.14865" lon="5.6679">
        <ele>248</ele>
        <time>2019-04-15T09:03:13Z</time>
      </trkpt>
      <trkpt lat="47.14862" lon="5.66762">
        <ele>248</ele>
        <time>2019-04-15T09:03:28Z</time>
      </trkpt>
      <trkpt lat="47.14861" lon="5.66749">
        <ele>247</ele>
        <time>2019-04-15T09:03:35Z</time>
      </trkpt>
      <trkpt lat="47.1486" lon="5.66742">
        <ele>248</ele>
        <time>2019-04-15T09:03:39Z</time>
      </trkpt>
      <trkpt lat="47.14859" lon="5.66734">
        <ele>248</ele>
        <time>2019-04-15T09:03:43Z</time>
      </trkpt>
      <trkpt lat="47.14859" lon="5.66726">
        <ele>247</ele>
        <time>2019-04-15T09:03:47Z</time>
      </trkpt>
      <trkpt lat="47.14859" lon="5.66718">
        <ele>247</ele>
        <time>2019-04-15T09:03:51Z</time>
      </trkpt>
      <trkpt lat="47.14858" lon="5.66711">
        <ele>247</ele>
        <time>2019-04-15T09:03:55Z</time>
      </trkpt>
      <trkpt lat="47.14857" lon="5.66704">
        <ele>247</ele>
        <time>2019-04-15T09:03:59Z</time>
      </trkpt>
      <trkpt lat="47.14857" lon="5.66697">
        <ele>247</ele>
        <time>2019-04-15T09:04:03Z</time>
      </trkpt>
      <trkpt lat="47.14858" lon="5.66689">
        <ele>247</ele>
        <time>2019-04-15T09:04:07Z</time>
      </trkpt>
      <trkpt lat="47.14858" lon="5.66681">
        <ele>247</ele>
        <time>2019-04-15T09:04:11Z</time>
      </trkpt>
      <trkpt lat="47.14855" lon="5.66658">
        <ele>247</ele>
        <time>2019-04-15T09:04:22Z</time>
      </trkpt>
      <trkpt lat="47.14853" lon="5.66651">
        <ele>247</ele>
        <time>2019-04-15T09:04:26Z</time>
      </trkpt>
      <trkpt lat="47.14851" lon="5.66644">
        <ele>246</ele>
        <time>2019-04-15T09:04:30Z</time>
      </trkpt>
      <trkpt lat="47.1485" lon="5.66637">
        <ele>247</ele>
        <time>2019-04-15T09:04:34Z</time>
      </trkpt>
      <trkpt lat="47.14848" lon="5.66629">
        <ele>247</ele>
        <time>2019-04-15T09:04:38Z</time>
      </trkpt>
      <trkpt lat="47.14848" lon="5.66622">
        <ele>246</ele>
        <time>2019-04-15T09:04:42Z</time>
      </trkpt>
      <trkpt lat="47.14843" lon="5.66601">
        <ele>247</ele>
        <time>2019-04-15T09:04:54Z</time>
      </trkpt>
      <trkpt lat="47.14842" lon="5.66586">
        <ele>247</ele>
        <time>2019-04-15T09:05:02Z</time>
      </trkpt>
      <trkpt lat="47.14841" lon="5.66572">
        <ele>248</ele>
        <time>2019-04-15T09:05:10Z</time>
      </trkpt>
      <trkpt lat="47.1484" lon="5.66564">
        <ele>248</ele>
        <time>2019-04-15T09:05:14Z</time>
      </trkpt>
      <trkpt lat="47.1484" lon="5.66557">
        <ele>247</ele>
        <time>2019-04-15T09:05:18Z</time>
      </trkpt>
      <trkpt lat="47.1484" lon="5.6655">
        <ele>248</ele>
        <time>2019-04-15T09:05:22Z</time>
      </trkpt>
      <trkpt lat="47.14839" lon="5.66543">
        <ele>248</ele>
        <time>2019-04-15T09:05:26Z</time>
      </trkpt>
      <trkpt lat="47.14838" lon="5.66536">
        <ele>247</ele>
        <time>2019-04-15T09:05:30Z</time>
      </trkpt>
      <trkpt lat="47.14835" lon="5.66529">
        <ele>247</ele>
        <time>2019-04-15T09:05:34Z</time>
      </trkpt>
      <trkpt lat="47.14824" lon="5.66493">
        <ele>247</ele>
        <time>2019-04-15T09:05:54Z</time>
      </trkpt>
      <trkpt lat="47.14822" lon="5.66487">
        <ele>246</ele>
        <time>2019-04-15T09:05:58Z</time>
      </trkpt>
      <trkpt lat="47.14819" lon="5.66481">
        <ele>246</ele>
        <time>2019-04-15T09:06:02Z</time>
      </trkpt>
      <trkpt lat="47.14817" lon="5.66474">
        <ele>247</ele>
        <time>2019-04-15T09:06:06Z</time>
      </trkpt>
      <trkpt lat="47.14816" lon="5.6646">
        <ele>246</ele>
        <time>2019-04-15T09:06:14Z</time>
      </trkpt>
      <trkpt lat="47.14813" lon="5.66454">
        <ele>246</ele>
        <time>2019-04-15T09:06:18Z</time>
      </trkpt>
      <trkpt lat="47.14811" lon="5.66447">
        <ele>246</ele>
        <time>2019-04-15T09:06:22Z</time>
      </trkpt>
      <trkpt lat="47.14807" lon="5.66433">
        <ele>246</ele>
        <time>2019-04-15T09:06:30Z</time>
      </trkpt>
      <trkpt lat="47.14805" lon="5.66426">
        <ele>246</ele>
        <time>2019-04-15T09:06:35Z</time>
      </trkpt>
      <trkpt lat="47.14803" lon="5.6642">
        <ele>246</ele>
        <time>2019-04-15T09:06:39Z</time>
      </trkpt>
      <trkpt lat="47.14801" lon="5.66406">
        <ele>246</ele>
        <time>2019-04-15T09:06:47Z</time>
      </trkpt>
      <trkpt lat="47.14799" lon="5.664">
        <ele>245</ele>
        <time>2019-04-15T09:06:51Z</time>
      </trkpt>
      <trkpt lat="47.14797" lon="5.66392">
        <ele>245</ele>
        <time>2019-04-15T09:06:56Z</time>
      </trkpt>
      <trkpt lat="47.14795" lon="5.66386">
        <ele>245</ele>
        <time>2019-04-15T09:07:00Z</time>
      </trkpt>
      <trkpt lat="47.14788" lon="5.66367">
        <ele>243</ele>
        <time>2019-04-15T09:07:13Z</time>
      </trkpt>
      <trkpt lat="47.14785" lon="5.66361">
        <ele>242</ele>
        <time>2019-04-15T09:07:17Z</time>
      </trkpt>
      <trkpt lat="47.14782" lon="5.66347">
        <ele>243</ele>
        <time>2019-04-15T09:07:26Z</time>
      </trkpt>
      <trkpt lat="47.14779" lon="5.66341">
        <ele>243</ele>
        <time>2019-04-15T09:07:30Z</time>
      </trkpt>
      <trkpt lat="47.14778" lon="5.66325">
        <ele>243</ele>
        <time>2019-04-15T09:07:39Z</time>
      </trkpt>
      <trkpt lat="47.14777" lon="5.66318">
        <ele>243</ele>
        <time>2019-04-15T09:07:43Z</time>
      </trkpt>
      <trkpt lat="47.14776" lon="5.66311">
        <ele>243</ele>
        <time>2019-04-15T09:07:47Z</time>
      </trkpt>
      <trkpt lat="47.14774" lon="5.66303">
        <ele>243</ele>
        <time>2019-04-15T09:07:51Z</time>
      </trkpt>
      <trkpt lat="47.1477" lon="5.66288">
        <ele>243</ele>
        <time>2019-04-15T09:08:01Z</time>
      </trkpt>
      <trkpt lat="47.14762" lon="5.66252">
        <ele>238</ele>
        <time>2019-04-15T09:08:23Z</time>
      </trkpt>
      <trkpt lat="47.14759" lon="5.66229">
        <ele>238</ele>
        <time>2019-04-15T09:08:37Z</time>
      </trkpt>
      <trkpt lat="47.1476" lon="5.66222">
        <ele>238</ele>
        <time>2019-04-15T09:08:42Z</time>
      </trkpt>
      <trkpt lat="47.1476" lon="5.66207">
        <ele>237</ele>
        <time>2019-04-15T09:08:51Z</time>
      </trkpt>
      <trkpt lat="47.14755" lon="5.66205">
        <ele>237</ele>
        <time>2019-04-15T09:09:10Z</time>
      </trkpt>
      <trkpt lat="47.1475" lon="5.66209">
        <ele>237</ele>
        <time>2019-04-15T09:09:14Z</time>
      </trkpt>
      <trkpt lat="47.14745" lon="5.66212">
        <ele>237</ele>
        <time>2019-04-15T09:09:18Z</time>
      </trkpt>
      <trkpt lat="47.14741" lon="5.66216">
        <ele>237</ele>
        <time>2019-04-15T09:09:22Z</time>
      </trkpt>
      <trkpt lat="47.14736" lon="5.66221">
        <ele>237</ele>
        <time>2019-04-15T09:09:27Z</time>
      </trkpt>
      <trkpt lat="47.14732" lon="5.66223">
        <ele>237</ele>
        <time>2019-04-15T09:09:31Z</time>
      </trkpt>
      <trkpt lat="47.14727" lon="5.66222">
        <ele>236</ele>
        <time>2019-04-15T09:09:39Z</time>
      </trkpt>
      <trkpt lat="47.14722" lon="5.66226">
        <ele>235</ele>
        <time>2019-04-15T09:09:43Z</time>
      </trkpt>
      <trkpt lat="47.14719" lon="5.66231">
        <ele>235</ele>
        <time>2019-04-15T09:09:47Z</time>
      </trkpt>
      <trkpt lat="47.14716" lon="5.66235">
        <ele>235</ele>
        <time>2019-04-15T09:09:58Z</time>
      </trkpt>
      <trkpt lat="47.1471" lon="5.66229">
        <ele>235</ele>
        <time>2019-04-15T09:10:22Z</time>
      </trkpt>
      <trkpt lat="47.14707" lon="5.66221">
        <ele>235</ele>
        <time>2019-04-15T09:10:30Z</time>
      </trkpt>
      <trkpt lat="47.14702" lon="5.66215">
        <ele>234</ele>
        <time>2019-04-15T09:10:35Z</time>
      </trkpt>
      <trkpt lat="47.14698" lon="5.66211">
        <ele>234</ele>
        <time>2019-04-15T09:10:39Z</time>
      </trkpt>
      <trkpt lat="47.14694" lon="5.66207">
        <ele>234</ele>
        <time>2019-04-15T09:10:43Z</time>
      </trkpt>
      <trkpt lat="47.1468" lon="5.66201">
        <ele>231</ele>
        <time>2019-04-15T09:10:55Z</time>
      </trkpt>
      <trkpt lat="47.14666" lon="5.6619">
        <ele>231</ele>
        <time>2019-04-15T09:11:06Z</time>
      </trkpt>
      <trkpt lat="47.14661" lon="5.66189">
        <ele>230</ele>
        <time>2019-04-15T09:11:10Z</time>
      </trkpt>
      <trkpt lat="47.14655" lon="5.66188">
        <ele>230</ele>
        <time>2019-04-15T09:11:14Z</time>
      </trkpt>
      <trkpt lat="47.1465" lon="5.66187">
        <ele>230</ele>
        <time>2019-04-15T09:11:19Z</time>
      </trkpt>
      <trkpt lat="47.14645" lon="5.66185">
        <ele>230</ele>
        <time>2019-04-15T09:11:23Z</time>
      </trkpt>
      <trkpt lat="47.14642" lon="5.6618">
        <ele>229</ele>
        <time>2019-04-15T09:11:28Z</time>
      </trkpt>
      <trkpt lat="47.14645" lon="5.6617">
        <ele>228</ele>
        <time>2019-04-15T09:11:35Z</time>
      </trkpt>
      <trkpt lat="47.14645" lon="5.66163">
        <ele>228</ele>
        <time>2019-04-15T09:11:39Z</time>
      </trkpt>
      <trkpt lat="47.14646" lon="5.66148">
        <ele>227</ele>
        <time>2019-04-15T09:11:47Z</time>
      </trkpt>
      <trkpt lat="47.14648" lon="5.66141">
        <ele>227</ele>
        <time>2019-04-15T09:11:51Z</time>
      </trkpt>
      <trkpt lat="47.14649" lon="5.66134">
        <ele>227</ele>
        <time>2019-04-15T09:11:55Z</time>
      </trkpt>
      <trkpt lat="47.14649" lon="5.66127">
        <ele>227</ele>
        <time>2019-04-15T09:11:59Z</time>
      </trkpt>
      <trkpt lat="47.1465" lon="5.66111">
        <ele>226</ele>
        <time>2019-04-15T09:12:08Z</time>
      </trkpt>
      <trkpt lat="47.14652" lon="5.66105">
        <ele>226</ele>
        <time>2019-04-15T09:12:12Z</time>
      </trkpt>
      <trkpt lat="47.14654" lon="5.66097">
        <ele>226</ele>
        <time>2019-04-15T09:12:16Z</time>
      </trkpt>
      <trkpt lat="47.14655" lon="5.6609">
        <ele>225</ele>
        <time>2019-04-15T09:12:20Z</time>
      </trkpt>
      <trkpt lat="47.14655" lon="5.66082">
        <ele>225</ele>
        <time>2019-04-15T09:12:24Z</time>
      </trkpt>
      <trkpt lat="47.14655" lon="5.6606">
        <ele>224</ele>
        <time>2019-04-15T09:12:36Z</time>
      </trkpt>
      <trkpt lat="47.14655" lon="5.66039">
        <ele>225</ele>
        <time>2019-04-15T09:12:48Z</time>
      </trkpt>
      <trkpt lat="47.14655" lon="5.66031">
        <ele>224</ele>
        <time>2019-04-15T09:12:52Z</time>
      </trkpt>
      <trkpt lat="47.14655" lon="5.66022">
        <ele>224</ele>
        <time>2019-04-15T09:12:56Z</time>
      </trkpt>
      <trkpt lat="47.14655" lon="5.66015">
        <ele>223</ele>
        <time>2019-04-15T09:13:00Z</time>
      </trkpt>
      <trkpt lat="47.14657" lon="5.66008">
        <ele>223</ele>
        <time>2019-04-15T09:13:05Z</time>
      </trkpt>
      <trkpt lat="47.14658" lon="5.65993">
        <ele>224</ele>
        <time>2019-04-15T09:13:14Z</time>
      </trkpt>
      <trkpt lat="47.1466" lon="5.65986">
        <ele>222</ele>
        <time>2019-04-15T09:13:18Z</time>
      </trkpt>
      <trkpt lat="47.14661" lon="5.65979">
        <ele>223</ele>
        <time>2019-04-15T09:13:22Z</time>
      </trkpt>
      <trkpt lat="47.14662" lon="5.65973">
        <ele>223</ele>
        <time>2019-04-15T09:13:26Z</time>
      </trkpt>
      <trkpt lat="47.14662" lon="5.65966">
        <ele>223</ele>
        <time>2019-04-15T09:13:30Z</time>
      </trkpt>
      <trkpt lat="47.14663" lon="5.65951">
        <ele>223</ele>
        <time>2019-04-15T09:13:38Z</time>
      </trkpt>
      <trkpt lat="47.14665" lon="5.65936">
        <ele>222</ele>
        <time>2019-04-15T09:13:47Z</time>
      </trkpt>
      <trkpt lat="47.14666" lon="5.65928">
        <ele>222</ele>
        <time>2019-04-15T09:13:52Z</time>
      </trkpt>
      <trkpt lat="47.14666" lon="5.65921">
        <ele>221</ele>
        <time>2019-04-15T09:13:56Z</time>
      </trkpt>
      <trkpt lat="47.14667" lon="5.65914">
        <ele>222</ele>
        <time>2019-04-15T09:14:00Z</time>
      </trkpt>
      <trkpt lat="47.14666" lon="5.65907">
        <ele>222</ele>
        <time>2019-04-15T09:14:04Z</time>
      </trkpt>
      <trkpt lat="47.14666" lon="5.65892">
        <ele>221</ele>
        <time>2019-04-15T09:14:13Z</time>
      </trkpt>
      <trkpt lat="47.14665" lon="5.65884">
        <ele>221</ele>
        <time>2019-04-15T09:14:18Z</time>
      </trkpt>
      <trkpt lat="47.14665" lon="5.65877">
        <ele>221</ele>
        <time>2019-04-15T09:14:22Z</time>
      </trkpt>
      <trkpt lat="47.14664" lon="5.65869">
        <ele>221</ele>
        <time>2019-04-15T09:14:26Z</time>
      </trkpt>
      <trkpt lat="47.14663" lon="5.65863">
        <ele>221</ele>
        <time>2019-04-15T09:14:30Z</time>
      </trkpt>
      <trkpt lat="47.14662" lon="5.65856">
        <ele>220</ele>
        <time>2019-04-15T09:14:34Z</time>
      </trkpt>
      <trkpt lat="47.14664" lon="5.65842">
        <ele>221</ele>
        <time>2019-04-15T09:14:42Z</time>
      </trkpt>
      <trkpt lat="47.14663" lon="5.65835">
        <ele>221</ele>
        <time>2019-04-15T09:14:46Z</time>
      </trkpt>
      <trkpt lat="47.14662" lon="5.65821">
        <ele>220</ele>
        <time>2019-04-15T09:14:54Z</time>
      </trkpt>
      <trkpt lat="47.14662" lon="5.65813">
        <ele>221</ele>
        <time>2019-04-15T09:14:59Z</time>
      </trkpt>
      <trkpt lat="47.14662" lon="5.65805">
        <ele>219</ele>
        <time>2019-04-15T09:15:03Z</time>
      </trkpt>
      <trkpt lat="47.14661" lon="5.65797">
        <ele>218</ele>
        <time>2019-04-15T09:15:07Z</time>
      </trkpt>
      <trkpt lat="47.1466" lon="5.65791">
        <ele>218</ele>
        <time>2019-04-15T09:15:10Z</time>
      </trkpt>
      <trkpt lat="47.1466" lon="5.65784">
        <ele>218</ele>
        <time>2019-04-15T09:15:14Z</time>
      </trkpt>
      <trkpt lat="47.1466" lon="5.65777">
        <ele>218</ele>
        <time>2019-04-15T09:15:18Z</time>
      </trkpt>
      <trkpt lat="47.1466" lon="5.6577">
        <ele>218</ele>
        <time>2019-04-15T09:15:22Z</time>
      </trkpt>
      <trkpt lat="47.1466" lon="5.65763">
        <ele>218</ele>
        <time>2019-04-15T09:15:26Z</time>
      </trkpt>
      <trkpt lat="47.14661" lon="5.65749">
        <ele>218</ele>
        <time>2019-04-15T09:15:35Z</time>
      </trkpt>
      <trkpt lat="47.14659" lon="5.65734">
        <ele>218</ele>
        <time>2019-04-15T09:15:44Z</time>
      </trkpt>
      <trkpt lat="47.14655" lon="5.65723">
        <ele>217</ele>
        <time>2019-04-15T09:15:52Z</time>
      </trkpt>
      <trkpt lat="47.14651" lon="5.65718">
        <ele>217</ele>
        <time>2019-04-15T09:15:56Z</time>
      </trkpt>
      <trkpt lat="47.14644" lon="5.65706">
        <ele>216</ele>
        <time>2019-04-15T09:16:06Z</time>
      </trkpt>
    </trkseg>
  </trk>
</gpx>